Latitude: N 50° 09' 49" Longitude: W 05° 11' 53" Elevation: 168m ASL

There are 23 visitors online

Adverts

<- Previous Day | Today | Next Day ->

All Data for 11 January 2019

Time
A - D
Temp
A - D
Dew Point
A - D
Humidity
A - D
Pressure
A - D
Wind
A - D
Wind Dir Gust
A - D
Rain Rate
A - D
Rain Total
00:00 8.5 7.7 95 1032.8 3.8 N 6.9 0.0 0.0
00:01 8.5 7.7 95 1032.9 3.8 N 6.9 0.0 0.0
00:02 8.5 7.7 95 1032.9 3.8 N 6.9 0.0 0.0
00:03 8.5 7.7 95 1032.8 3.8 N 6.9 0.0 0.0
00:04 8.5 7.7 95 1032.8 3.8 N 6.9 0.0 0.0
00:05 8.5 7.7 95 1032.9 3.8 N 6.9 0.0 0.0
00:06 8.5 7.9 96 1032.7 5.4 NW 6.9 0.0 0.0
00:07 8.5 7.9 96 1032.8 3.1 W 6.0 0.0 0.0
00:08 8.5 7.7 95 1032.8 4.5 W 6.0 0.0 0.0
00:09 8.5 7.9 96 1032.9 3.8 N 6.0 0.0 0.0
00:10 8.6 8.0 96 1032.7 2.2 NE 5.4 0.0 0.0
00:11 8.5 7.9 96 1032.8 2.2 NW 5.4 0.0 0.0
00:12 8.4 7.8 96 1032.9 2.2 NW 5.4 0.0 0.0
00:13 8.4 7.8 96 1032.8 3.1 NE 5.4 0.0 0.0
00:14 8.4 7.8 96 1032.8 3.8 NNE 5.4 0.0 0.0
00:15 8.4 7.8 96 1032.8 3.1 NW 5.4 0.0 0.0
00:16 8.4 7.8 96 1032.8 2.2 NW 5.4 0.0 0.0
00:17 8.4 7.8 96 1032.9 3.8 NE 4.5 0.0 0.0
00:19 8.4 7.8 96 1032.9 4.5 E 4.5 0.0 0.0
00:20 8.4 7.8 96 1032.8 5.4 N 5.4 0.0 0.0
00:21 8.4 7.8 96 1032.9 2.2 N 5.4 0.0 0.0
00:22 8.4 7.8 96 1032.8 3.8 N 5.4 0.0 0.0
00:23 8.4 7.8 96 1032.8 2.2 N 5.4 0.0 0.0
00:24 8.3 7.7 96 1032.8 2.2 NW 5.4 0.0 0.0
00:25 8.3 7.7 96 1032.8 2.2 N 5.4 0.0 0.0
00:26 8.3 7.7 96 1032.9 2.2 N 5.4 0.0 0.0
00:27 8.3 7.7 96 1032.9 2.2 N 5.4 0.0 0.0
00:28 8.3 7.7 96 1032.9 3.8 NW 5.4 0.0 0.0
00:29 8.3 7.7 96 1032.9 3.8 NE 5.4 0.0 0.0
00:30 8.3 7.7 96 1032.8 3.1 NE 5.4 0.0 0.0
00:31 8.3 7.7 96 1032.8 2.2 NNE 5.4 0.0 0.0
00:32 8.2 7.6 96 1032.7 3.1 N 3.8 0.0 0.0
00:33 8.2 7.6 96 1032.9 2.2 NW 3.8 0.0 0.0
00:34 8.2 7.6 96 1032.9 3.8 NW 3.8 0.0 0.0
00:35 8.2 7.6 96 1032.8 4.5 NW 4.5 0.0 0.0
00:36 8.2 7.6 96 1032.9 1.6 NW 4.5 0.0 0.0
00:38 8.2 7.6 96 1032.8 2.2 NW 4.5 0.0 0.0
00:39 8.2 7.6 96 1032.9 1.6 N 4.5 0.0 0.0
00:40 8.2 7.6 96 1032.9 3.1 N 4.5 0.0 0.0
00:41 8.1 7.5 96 1032.9 2.2 N 4.5 0.0 0.0
00:42 8.1 7.5 96 1032.8 0.7 NW 4.5 0.0 0.0
00:43 8.1 7.5 96 1032.8 2.2 NW 4.5 0.0 0.0
00:44 8.1 7.5 96 1032.9 4.5 N 4.5 0.0 0.0
01:30 7.6 7.0 96 1032.8 2.2 NE 3.1 0.0 0.0
01:31 7.6 7.0 96 1032.9 2.2 NE 3.1 0.0 0.0
01:32 7.5 6.9 96 1032.8 2.2 N 3.1 0.0 0.0
01:33 7.5 6.9 96 1032.9 1.6 SW 3.1 0.0 0.0
01:34 7.5 6.9 96 1032.8 1.6 N 3.1 0.0 0.0
01:35 7.5 6.9 96 1032.8 1.6 N 3.1 0.0 0.0
01:36 7.5 6.9 96 1032.8 2.2 NE 3.1 0.0 0.0
01:37 7.5 6.9 96 1032.7 2.2 NW 3.1 0.0 0.0
01:38 7.5 6.9 96 1032.7 1.6 NE 3.1 0.0 0.0
01:39 7.5 6.9 96 1032.7 2.2 N 3.1 0.0 0.0
01:40 7.4 6.8 96 1032.7 4.5 N 4.5 0.0 0.0
01:41 7.5 6.9 96 1032.9 4.5 N 4.5 0.0 0.0
01:42 7.4 6.8 96 1032.9 1.6 N 4.5 0.0 0.0
01:43 7.4 6.8 96 1033.0 3.1 W 4.5 0.0 0.0
01:44 7.4 6.8 96 1032.9 3.8 NW 4.5 0.0 0.0
01:45 7.4 6.8 96 1032.8 3.8 NE 4.5 0.0 0.0
01:47 7.4 6.8 96 1032.9 1.6 N 4.5 0.0 0.0
01:48 7.4 6.8 96 1032.8 3.1 N 4.5 0.0 0.0
01:49 7.4 6.8 96 1032.8 3.1 NW 4.5 0.0 0.0
01:50 7.4 6.8 96 1032.8 3.8 NE 4.5 0.0 0.0
01:51 7.4 6.8 96 1032.7 4.5 NW 4.5 0.0 0.0
01:52 7.3 6.7 96 1032.9 1.6 SW 4.5 0.0 0.0
01:53 7.3 6.7 96 1032.9 1.6 SW 4.5 0.0 0.0
01:54 7.3 6.7 96 1032.8 1.6 N 4.5 0.0 0.0
01:55 7.3 6.7 96 1032.8 1.6 N 4.5 0.0 0.0
01:56 7.3 6.7 96 1032.8 3.1 NW 4.5 0.0 0.0
01:57 7.3 6.7 96 1032.8 1.6 W 4.5 0.0 0.0
01:58 7.3 6.7 96 1032.8 3.1 S 4.5 0.0 0.0
01:59 7.3 6.7 96 1032.8 1.6 NE 4.5 0.0 0.0
02:00 7.3 6.7 96 1032.8 2.2 N 4.5 0.0 0.0
02:01 7.3 6.7 96 1033.1 2.2 N 4.5 0.0 0.0
02:02 7.3 6.7 96 1033.0 2.2 N 4.5 0.0 0.0
02:03 7.3 6.7 96 1032.9 2.2 N 4.5 0.0 0.0
02:04 7.3 6.7 96 1033.0 2.2 N 4.5 0.0 0.0
02:06 7.2 6.6 96 1033.0 3.1 W 4.5 0.0 0.0
02:07 7.2 6.6 96 1032.9 3.8 N 4.5 0.0 0.0
02:08 7.2 6.6 96 1033.0 1.6 N 4.5 0.0 0.0
02:09 7.2 6.6 96 1033.0 3.1 NW 3.8 0.0 0.0
02:10 7.2 6.6 96 1033.1 2.2 N 3.8 0.0 0.0
02:11 7.2 6.6 96 1033.1 2.2 SW 3.8 0.0 0.0
02:12 7.2 6.6 96 1033.0 2.2 N 3.8 0.0 0.0
02:13 7.2 6.6 96 1033.0 2.2 NW 3.8 0.0 0.0
02:14 7.2 6.6 96 1033.0 3.1 NW 3.8 0.0 0.0
02:15 7.1 6.5 96 1033.1 3.1 N 3.8 0.0 0.0
02:16 7.1 6.5 96 1033.1 3.8 NW 3.8 0.0 0.0
02:17 7.1 6.5 96 1033.1 1.6 NW 3.8 0.0 0.0
02:18 7.1 6.4 95 1033.0 0.7 NW 3.8 0.0 0.0
02:19 7.1 6.5 96 1033.0 0.7 N 3.8 0.0 0.0
02:20 7.1 6.5 96 1032.9 0.0 N 3.8 0.0 0.0
02:21 7.1 6.4 95 1032.8 0.0 NW 3.8 0.0 0.0
02:22 7.1 6.5 96 1033.0 0.0 NE 3.8 0.0 0.0
02:23 7.1 6.5 96 1033.0 0.0 NW 3.8 0.0 0.0
02:25 6.9 6.3 96 1032.9 1.6 N 3.8 0.0 0.0
02:26 7.0 6.4 96 1033.0 0.7 NW 2.2 0.0 0.0
02:27 7.0 6.4 96 1033.0 1.6 NW 2.2 0.0 0.0
02:28 7.0 6.3 95 1033.0 0.7 NW 1.6 0.0 0.0
02:29 7.0 6.4 96 1032.9 0.7 NW 1.6 0.0 0.0
02:30 7.0 6.4 96 1033.1 0.7 W 1.6 0.0 0.0
02:31 7.0 6.4 96 1033.0 1.6 NW 1.6 0.0 0.0
02:32 7.0 6.4 96 1033.0 1.6 NW 1.6 0.0 0.0
02:33 7.0 6.4 96 1033.0 3.1 NW 3.1 0.0 0.0
02:34 7.0 6.4 96 1033.0 2.2 NW 3.1 0.0 0.0
02:35 7.0 6.4 96 1033.1 2.2 NW 3.1 0.0 0.0
02:36 7.0 6.4 96 1033.1 1.6 N 3.1 0.0 0.0
02:37 7.0 6.4 96 1033.1 3.8 NW 3.8 0.0 0.0
02:38 7.0 6.4 96 1033.1 1.6 NW 3.8 0.0 0.0
02:39 7.0 6.4 96 1032.9 0.7 N 3.8 0.0 0.0
02:40 7.0 6.4 96 1032.9 1.6 N 3.8 0.0 0.0
02:41 7.0 6.4 96 1033.0 1.6 NW 3.8 0.0 0.0
02:42 7.0 6.4 96 1033.0 1.6 NW 3.8 0.0 0.0
02:44 7.0 6.4 96 1033.1 0.7 NW 3.8 0.0 0.0
02:45 7.0 6.4 96 1033.0 1.6 NW 3.8 0.0 0.0
02:46 7.0 6.4 96 1033.0 0.0 NW 3.8 0.0 0.0
02:47 7.0 6.4 96 1033.2 0.0 NW 2.2 0.0 0.0
02:48 7.0 6.4 96 1033.1 0.7 NW 2.2 0.0 0.0
02:49 7.0 6.4 96 1033.1 0.0 NW 2.2 0.0 0.0
02:50 7.0 6.4 96 1033.1 0.0 NW 2.2 0.0 0.0
02:51 7.0 6.4 96 1033.0 0.0 NW 2.2 0.0 0.0
02:52 7.0 6.4 96 1033.3 0.7 NW 2.2 0.0 0.0
02:53 7.0 6.4 96 1033.2 0.0 NW 2.2 0.0 0.0
02:54 7.0 6.4 96 1033.1 0.0 NW 2.2 0.0 0.0
02:55 6.9 6.3 96 1033.2 0.0 NW 1.6 0.0 0.0
02:56 7.0 6.4 96 1033.2 0.0 NW 0.7 0.0 0.0
02:57 7.0 6.4 96 1033.2 0.0 NW 0.7 0.0 0.0
02:58 7.0 6.4 96 1033.2 0.7 NW 0.7 0.0 0.0
02:59 7.0 6.4 96 1033.3 0.7 NW 0.7 0.0 0.0
03:00 7.0 6.4 96 1033.2 1.6 NW 1.6 0.0 0.0
03:01 7.0 6.4 96 1033.1 1.6 NW 1.6 0.0 0.0
03:02 7.0 6.4 96 1033.1 1.6 NW 1.6 0.0 0.0
03:03 7.0 6.4 96 1033.2 1.6 NW 1.6 0.0 0.0
03:05 7.0 6.4 96 1033.1 0.0 NW 1.6 0.0 0.0
03:06 7.0 6.4 96 1033.2 1.6 NW 1.6 0.0 0.0
03:07 7.0 6.4 96 1033.0 0.7 NW 1.6 0.0 0.0
03:08 7.0 6.4 96 1033.1 0.0 NW 1.6 0.0 0.0
03:09 7.1 6.5 96 1033.1 0.7 NW 1.6 0.0 0.0
03:10 7.1 6.5 96 1033.2 0.0 NW 1.6 0.0 0.0
03:11 7.1 6.5 96 1033.2 0.0 NW 1.6 0.0 0.0
03:12 7.1 6.5 96 1033.1 0.7 NW 1.6 0.0 0.0
03:13 7.1 6.5 96 1033.0 0.0 NW 1.6 0.0 0.0
03:14 6.9 6.3 96 1032.9 0.0 N 1.6 0.0 0.0
03:15 6.9 6.3 96 1033.1 0.0 N 1.6 0.0 0.0
03:16 7.1 6.5 96 1033.2 0.0 N 1.6 0.0 0.0
03:17 7.0 6.4 96 1033.1 1.6 N 1.6 0.0 0.0
03:18 7.0 6.4 96 1033.0 0.7 N 1.6 0.0 0.0
03:19 7.0 6.4 96 1033.1 0.7 N 1.6 0.0 0.0
03:20 7.0 6.4 96 1033.1 0.7 NW 1.6 0.0 0.0
03:21 7.0 6.4 96 1033.2 0.7 NW 1.6 0.0 0.0
03:22 7.0 6.4 96 1033.2 0.0 N 1.6 0.0 0.0
03:23 7.0 6.4 96 1033.1 0.0 N 1.6 0.0 0.0
03:24 7.0 6.4 96 1033.1 0.0 N 1.6 0.0 0.0
03:25 7.0 6.4 96 1033.2 0.7 NW 1.6 0.0 0.0
03:27 6.9 6.3 96 1032.8 1.6 W 1.6 0.0 0.0
03:28 7.0 6.4 96 1033.2 0.0 N 1.6 0.0 0.0
03:29 7.0 6.4 96 1033.2 0.0 N 1.6 0.0 0.0
03:30 7.0 6.4 96 1033.0 0.0 N 1.6 0.0 0.0
03:31 7.0 6.4 96 1033.2 0.0 N 1.6 0.0 0.0
03:32 7.0 6.4 96 1033.2 0.0 N 1.6 0.0 0.0
03:33 7.0 6.4 96 1033.2 0.0 N 1.6 0.0 0.0
03:34 7.0 6.4 96 1033.1 0.0 NW 1.6 0.0 0.0
03:35 6.9 6.3 96 1033.1 0.0 NW 1.6 0.0 0.0
03:36 6.9 6.3 96 1033.0 0.0 NW 1.6 0.0 0.0
03:37 6.9 6.3 96 1033.0 0.0 NW 1.6 0.0 0.0
03:38 6.9 6.3 96 1032.9 0.0 NW 1.6 0.0 0.0
03:39 6.9 6.3 96 1032.9 0.0 NW 0.0 0.0 0.0
03:40 6.9 6.3 96 1033.0 0.0 NW 0.0 0.0 0.0
03:41 6.9 6.3 96 1033.0 0.0 NW 0.0 0.0 0.0
03:42 6.9 6.3 96 1032.9 0.0 NW 0.0 0.0 0.0
03:43 6.9 6.3 96 1033.0 0.0 NW 0.0 0.0 0.0
03:44 6.8 6.2 96 1033.0 0.0 NW 0.0 0.0 0.0
03:46 6.8 6.2 96 1033.0 0.0 NW 0.0 0.0 0.0
03:47 6.8 6.2 96 1033.0 0.0 N 0.0 0.0 0.0
03:48 6.8 6.2 96 1032.9 0.0 N 0.0 0.0 0.0
03:49 6.8 6.2 96 1033.1 0.0 NW 0.0 0.0 0.0
03:50 6.8 6.2 96 1033.0 0.0 N 0.0 0.0 0.0
03:51 6.8 6.2 96 1033.0 0.0 NW 0.0 0.0 0.0
03:52 6.8 6.2 96 1033.0 0.0 NW 0.0 0.0 0.0
03:53 6.8 6.2 96 1033.0 0.0 NW 0.0 0.0 0.0
03:54 6.8 6.2 96 1033.2 0.0 NW 0.0 0.0 0.0
03:55 6.8 6.2 96 1033.1 0.0 NW 0.0 0.0 0.0
03:56 6.8 6.2 96 1033.0 0.0 NW 0.0 0.0 0.0
03:57 6.8 6.2 96 1033.1 0.0 NW 0.0 0.0 0.0
03:58 6.8 6.2 96 1033.1 0.7 WNW 1.6 0.0 0.0
03:59 6.8 6.2 96 1033.1 0.0 NW 1.6 0.0 0.0
04:00 6.8 6.2 96 1033.1 0.0 N 1.6 0.0 0.0
04:01 6.8 6.2 96 1032.9 0.0 N 1.6 0.0 0.0
04:02 6.8 6.2 96 1033.0 0.0 N 1.6 0.0 0.0
04:03 6.8 6.2 96 1033.1 0.0 N 1.6 0.0 0.0
04:05 6.8 6.2 96 1033.1 0.0 N 1.6 0.0 0.0
04:06 6.8 6.2 96 1033.1 0.0 N 1.6 0.0 0.0
04:07 6.8 6.2 96 1033.0 0.0 N 1.6 0.0 0.0
04:08 6.9 6.3 96 1033.1 0.0 NW 0.7 0.0 0.0
04:09 6.9 6.3 96 1033.0 0.0 NW 0.0 0.0 0.0
04:10 6.9 6.3 96 1033.0 0.0 NW 0.0 0.0 0.0
04:11 6.9 6.3 96 1033.0 0.0 N 0.0 0.0 0.0
04:12 6.9 6.3 96 1033.0 0.0 NW 0.0 0.0 0.0
04:13 6.9 6.3 96 1033.0 0.0 NW 0.0 0.0 0.0
04:14 7.0 6.4 96 1033.0 0.7 NW 1.6 0.0 0.0
04:15 7.0 6.4 96 1033.0 0.7 NW 1.6 0.0 0.0
04:16 7.0 6.4 96 1033.1 1.6 N 2.2 0.0 0.0
04:17 7.0 6.4 96 1033.0 1.6 W 2.2 0.0 0.0
04:18 7.0 6.4 96 1033.0 3.1 W 3.1 0.0 0.0
04:19 7.0 6.4 96 1032.9 3.1 NW 3.1 0.0 0.0
04:20 7.1 6.5 96 1032.8 1.6 W 3.1 0.0 0.0
04:21 7.0 6.4 96 1032.9 3.8 NW 3.8 0.0 0.0
04:22 7.1 6.5 96 1032.8 2.2 NW 3.8 0.0 0.0
04:24 7.1 6.5 96 1033.0 1.6 N 3.8 0.0 0.0
04:25 7.1 6.5 96 1032.9 0.0 NW 3.8 0.0 0.0
04:26 7.1 6.5 96 1032.9 0.0 N 3.8 0.0 0.0
04:27 7.1 6.5 96 1032.9 0.0 N 3.8 0.0 0.0
04:28 7.2 6.6 96 1032.9 0.0 NW 3.8 0.0 0.0
04:29 7.2 6.6 96 1032.9 0.0 NW 3.8 0.0 0.0
04:30 7.2 6.6 96 1032.8 1.6 NW 3.8 0.0 0.0
04:31 7.2 6.6 96 1032.9 1.6 NW 3.8 0.0 0.0
04:32 7.2 6.6 96 1032.9 0.0 NW 2.2 0.0 0.0
04:33 7.2 6.6 96 1033.0 0.0 NW 2.2 0.0 0.0
04:34 7.2 6.6 96 1032.8 1.6 NW 2.2 0.0 0.0
04:35 7.2 6.6 96 1032.8 1.6 NW 2.2 0.0 0.0
04:36 7.3 6.7 96 1032.9 1.6 NW 2.2 0.0 0.0
04:37 7.3 6.7 96 1032.8 3.1 SW 3.1 0.0 0.0
04:38 7.3 6.7 96 1032.9 3.1 NW 3.1 0.0 0.0
04:39 7.3 6.7 96 1033.0 4.5 NW 4.5 0.0 0.0
04:40 7.2 6.6 96 1032.8 1.6 NW 4.5 0.0 0.0
04:41 7.3 6.7 96 1032.9 3.1 W 4.5 0.0 0.0
04:43 7.3 6.7 96 1032.7 1.6 NW 4.5 0.0 0.0
04:44 7.3 6.7 96 1032.8 0.0 NW 4.5 0.0 0.0
04:45 7.3 6.7 96 1032.8 2.2 N 4.5 0.0 0.0
04:46 7.3 6.7 96 1032.8 1.6 NW 4.5 0.0 0.0
04:47 7.3 6.7 96 1032.7 2.2 NW 4.5 0.0 0.0
04:48 7.3 6.7 96 1032.8 0.0 NW 4.5 0.0 0.0
04:49 7.4 6.8 96 1032.8 0.0 NW 4.5 0.0 0.0
04:50 7.4 6.8 96 1032.8 1.6 N 3.8 0.0 0.0
04:51 7.4 7.0 97 1032.6 1.6 N 3.1 0.0 0.0
04:52 7.4 6.8 96 1032.8 0.7 N 2.2 0.0 0.0
04:53 7.4 6.8 96 1032.7 1.6 N 2.2 0.0 0.0
04:54 7.4 6.8 96 1032.7 0.7 NW 2.2 0.0 0.0
04:55 7.4 6.8 96 1032.7 0.7 NW 2.2 0.0 0.0
04:56 7.4 6.8 96 1032.6 0.0 NW 2.2 0.0 0.0
04:57 7.4 6.8 96 1032.7 0.0 NW 2.2 0.0 0.0
04:58 7.4 6.8 96 1032.7 0.0 NW 1.6 0.0 0.0
04:59 7.4 6.8 96 1032.7 0.0 N 1.6 0.0 0.0
05:00 7.4 6.8 96 1032.6 0.0 N 1.6 0.0 0.0
05:01 7.4 6.8 96 1032.7 0.0 N 1.6 0.0 0.0
05:02 7.4 6.8 96 1032.7 0.0 N 1.6 0.0 0.0
05:04 7.4 6.8 96 1032.8 0.0 N 0.7 0.0 0.0
05:05 7.4 6.8 96 1032.6 0.0 N 0.0 0.0 0.0
05:06 7.4 6.8 96 1032.8 0.0 N 0.0 0.0 0.0
05:07 7.4 6.8 96 1032.7 0.0 N 0.0 0.0 0.0
05:08 7.5 6.9 96 1032.8 3.1 NW 3.1 0.0 0.0
05:09 7.5 6.9 96 1032.8 3.1 NW 3.1 0.0 0.0
05:10 7.5 6.9 96 1032.5 2.2 W 3.1 0.0 0.0
05:11 7.5 6.9 96 1032.6 3.1 NW 3.8 0.0 0.0
05:12 7.6 7.0 96 1032.7 3.1 NW 3.8 0.0 0.0
05:13 7.6 7.0 96 1032.5 0.0 N 3.8 0.0 0.0
05:14 7.6 7.0 96 1032.7 1.6 W 3.8 0.0 0.0
05:15 7.6 7.0 96 1032.7 1.6 W 3.8 0.0 0.0
05:16 7.6 7.0 96 1032.5 2.2 N 3.8 0.0 0.0
05:17 7.6 7.0 96 1032.7 0.7 NW 3.8 0.0 0.0
05:18 7.6 7.0 96 1032.6 0.7 NW 3.8 0.0 0.0
05:19 7.6 7.0 96 1032.6 0.7 NW 3.8 0.0 0.0
05:20 7.6 7.0 96 1032.7 0.7 NW 3.1 0.0 0.0
05:21 7.6 7.0 96 1032.5 0.7 N 3.1 0.0 0.0
05:23 7.6 7.0 96 1032.6 2.2 NW 3.1 0.0 0.0
05:24 7.6 7.0 96 1032.5 0.7 NW 2.2 0.0 0.0
05:25 7.6 7.0 96 1032.7 0.7 NW 2.2 0.0 0.0
05:26 7.6 7.0 96 1032.7 2.2 NW 2.2 0.0 0.0
05:27 7.6 7.0 96 1032.7 1.6 N 2.2 0.0 0.0
05:28 7.6 7.0 96 1032.7 1.6 N 2.2 0.0 0.0
05:29 7.7 7.1 96 1032.8 1.6 WNW 2.2 0.0 0.0
05:30 7.7 7.1 96 1032.7 2.2 N 2.2 0.0 0.0
05:31 7.6 7.0 96 1032.6 0.0 N 2.2 0.0 0.0
05:32 7.7 7.1 96 1032.7 0.0 N 2.2 0.0 0.0
05:33 7.7 7.1 96 1032.8 0.0 N 2.2 0.0 0.0
05:34 7.6 7.0 96 1032.8 0.0 NW 2.2 0.0 0.0
05:35 7.6 7.0 96 1032.8 0.0 NW 2.2 0.0 0.0
05:36 7.7 7.1 96 1032.6 0.0 NW 2.2 0.0 0.0
05:37 7.7 7.1 96 1032.8 0.0 NW 2.2 0.0 0.0
05:38 7.6 7.0 96 1032.8 0.0 NW 2.2 0.0 0.0
05:39 7.7 7.1 96 1032.8 0.0 NW 2.2 0.0 0.0
05:40 7.6 7.0 96 1032.8 0.0 NW 0.0 0.0 0.0
05:43 7.6 7.0 96 1032.8 0.0 N 0.0 0.0 0.0
05:44 7.7 7.1 96 1032.8 0.0 NW 0.0 0.0 0.0
05:45 7.6 7.0 96 1032.8 0.0 NW 0.0 0.0 0.0
05:46 7.7 7.1 96 1032.8 0.0 W 0.0 0.0 0.0
05:47 7.7 7.1 96 1032.8 0.0 NW 0.0 0.0 0.0
05:48 7.6 7.0 96 1032.8 0.0 NW 0.0 0.0 0.0
05:49 7.6 7.0 96 1032.8 0.0 NW 0.0 0.0 0.0
05:50 7.6 7.0 96 1032.7 0.0 NW 0.0 0.0 0.0
05:51 7.6 7.0 96 1032.8 0.0 N 0.0 0.0 0.0
05:52 7.6 7.0 96 1032.8 0.0 W 0.0 0.0 0.0
05:53 7.6 7.0 96 1032.7 0.0 NW 0.0 0.0 0.0
05:54 7.6 7.0 96 1032.8 0.0 SW 0.0 0.0 0.0
05:55 7.6 7.0 96 1032.8 1.6 N 1.6 0.0 0.0
05:56 7.6 7.0 96 1032.7 0.7 NW 1.6 0.0 0.0
05:57 7.6 7.0 96 1032.6 1.6 N 2.2 0.0 0.0
05:58 7.6 7.0 96 1032.7 0.7 W 2.2 0.0 0.0
05:59 7.6 7.0 96 1032.7 0.0 W 2.2 0.0 0.0
06:01 7.6 7.0 96 1032.8 0.0 W 2.2 0.0 0.0
06:02 7.6 7.0 96 1032.7 0.0 W 2.2 0.0 0.0
06:03 7.6 7.0 96 1032.8 0.0 W 2.2 0.0 0.0
06:04 7.6 7.0 96 1032.7 0.0 W 2.2 0.0 0.0
06:05 7.6 7.0 96 1032.7 0.0 NW 2.2 0.0 0.0
06:06 7.6 7.0 96 1032.8 0.7 N 2.2 0.0 0.0
06:07 7.7 7.1 96 1032.7 1.6 NW 1.6 0.0 0.0
06:08 7.7 7.1 96 1032.6 0.0 NW 1.6 0.0 0.0
06:09 7.7 7.1 96 1032.8 0.0 NW 1.6 0.0 0.0
06:10 7.7 7.1 96 1032.8 0.0 NW 1.6 0.0 0.0
06:11 7.6 7.0 96 1032.8 0.0 NW 1.6 0.0 0.0
06:12 7.6 7.0 96 1032.8 0.0 NW 1.6 0.0 0.0
06:13 7.7 7.1 96 1032.8 0.0 NW 1.6 0.0 0.0
06:14 7.7 7.1 96 1032.8 0.0 NW 1.6 0.0 0.0
06:15 7.6 7.0 96 1032.8 0.0 N 1.6 0.0 0.0
06:16 7.7 7.1 96 1032.8 0.7 N 1.6 0.0 0.0
06:17 7.7 7.1 96 1032.7 0.0 W 0.7 0.0 0.0
06:18 7.7 7.1 96 1032.8 0.7 NW 0.7 0.0 0.0
06:20 7.7 7.1 96 1032.7 0.0 NW 0.7 0.0 0.0
06:21 7.7 7.1 96 1032.7 0.7 NE 0.7 0.0 0.0
06:22 7.7 7.1 96 1032.7 0.7 N 0.7 0.0 0.0
06:23 7.7 7.1 96 1032.8 1.6 W 3.1 0.0 0.0
06:24 7.7 7.1 96 1032.7 3.8 NW 3.8 0.0 0.0
06:25 7.7 7.1 96 1032.7 3.8 NW 3.8 0.0 0.0
06:26 7.7 7.1 96 1032.8 3.1 NW 3.8 0.0 0.0
06:27 7.7 7.1 96 1032.7 3.8 SW 3.8 0.0 0.0
06:28 7.7 7.1 96 1032.8 3.8 N 3.8 0.0 0.0
06:29 7.7 7.1 96 1032.7 3.8 NW 3.8 0.0 0.0
06:30 7.7 7.1 96 1032.8 1.6 NW 3.8 0.0 0.0
06:31 7.7 7.1 96 1032.8 4.5 N 4.5 0.0 0.0
06:32 7.7 7.1 96 1032.8 5.4 N 5.4 0.0 0.0
06:33 7.7 7.1 96 1032.8 3.8 N 5.4 0.0 0.0
06:34 7.8 7.2 96 1032.8 2.2 SW 5.4 0.0 0.0
06:35 7.8 7.2 96 1032.8 4.5 W 5.4 0.0 0.0
06:36 7.8 7.2 96 1032.7 3.8 N 5.4 0.0 0.0
06:37 7.8 7.2 96 1032.8 3.1 NW 5.4 0.0 0.0
06:40 7.9 7.3 96 1032.8 3.1 NW 5.4 0.0 0.0
06:41 7.9 7.3 96 1032.8 3.1 NW 5.4 0.0 0.0
06:42 7.9 7.3 96 1032.8 3.1 NW 5.4 0.0 0.0
06:43 7.9 7.3 96 1032.7 9.2 W 9.2 0.0 0.0
06:44 7.9 7.3 96 1032.7 9.2 W 9.2 0.0 0.0
06:45 7.9 7.3 96 1032.7 5.4 NW 9.2 0.0 0.0
06:46 7.9 7.3 96 1032.7 8.3 WNW 9.2 0.0 0.0
06:47 7.9 7.3 96 1032.9 6.0 N 9.2 0.0 0.0
06:48 7.9 7.3 96 1032.7 9.8 NW 9.8 0.0 0.0
06:49 7.9 7.3 96 1032.8 6.9 WNW 9.8 0.0 0.0
06:50 7.9 7.3 96 1032.7 4.5 W 9.8 0.0 0.0
06:51 8.0 7.2 95 1032.8 13.0 NW 13.0 0.0 0.0
06:52 8.0 7.2 95 1032.9 8.3 NW 13.0 0.0 0.0
06:53 8.0 7.2 95 1032.9 8.3 NW 13.0 0.0 0.0
06:54 8.0 7.2 95 1032.8 10.7 NW 13.0 0.0 0.0
06:55 8.0 7.2 95 1033.0 12.1 N 13.0 0.0 0.0
06:56 8.0 7.2 95 1032.9 9.2 N 13.0 0.0 0.0
06:58 8.0 7.1 94 1032.8 7.6 NE 13.0 0.0 0.0
06:59 8.0 7.1 94 1032.9 13.0 N 13.0 0.0 0.0
07:00 8.0 7.1 94 1032.9 13.0 N 13.0 0.0 0.0
07:01 8.0 7.1 94 1032.9 13.0 N 13.0 0.0 0.0
07:02 8.0 7.1 94 1032.7 13.0 N 13.0 0.0 0.0
07:03 8.0 7.1 94 1032.9 13.0 N 13.0 0.0 0.0
07:04 8.0 7.1 94 1032.6 13.0 N 13.0 0.0 0.0
07:05 8.0 6.9 93 1032.9 11.4 NW 13.0 0.0 0.0
07:06 8.1 7.0 93 1032.9 9.2 N 13.0 0.0 0.0
07:07 8.1 7.0 93 1032.9 6.0 E 13.0 0.0 0.0
07:08 8.1 7.0 93 1032.9 9.8 WNW 13.0 0.0 0.0
07:09 8.1 7.0 93 1032.9 9.2 N 13.0 0.0 0.0
07:10 8.1 6.9 92 1032.8 9.2 N 13.0 0.0 0.0
07:11 8.1 6.9 92 1032.8 8.3 NW 13.0 0.0 0.0
07:12 8.1 6.9 92 1032.8 11.4 NE 13.0 0.0 0.0
07:13 8.1 6.9 92 1032.9 6.0 NW 13.0 0.0 0.0
07:14 8.1 6.9 92 1032.8 6.9 N 13.0 0.0 0.0
07:15 8.1 6.9 92 1032.9 9.8 WNW 11.4 0.0 0.0
07:16 8.1 6.9 92 1032.8 12.1 S 12.1 0.0 0.0
07:17 8.1 6.7 91 1032.7 9.2 N 12.1 0.0 0.0
07:18 8.1 6.7 91 1032.8 9.2 N 12.1 0.0 0.0
07:19 8.2 6.8 91 1032.8 10.7 NW 12.1 0.0 0.0
07:20 8.2 6.8 91 1033.0 6.9 NW 12.1 0.0 0.0
07:22 8.2 6.8 91 1032.9 6.9 N 12.1 0.0 0.0
07:23 8.2 6.8 91 1033.0 6.0 W 12.1 0.0 0.0
07:24 8.2 6.8 91 1032.8 6.9 NE 12.1 0.0 0.0
07:25 8.2 6.7 90 1032.9 9.2 NW 12.1 0.0 0.0
07:26 8.2 6.7 90 1032.8 9.8 NW 10.7 0.0 0.0
07:27 8.2 6.7 90 1032.8 6.0 NW 10.7 0.0 0.0
07:28 8.3 6.8 90 1032.9 8.3 NW 10.7 0.0 0.0
07:29 8.3 6.8 90 1032.7 13.0 NW 13.0 0.0 0.0
07:30 8.3 6.8 90 1032.9 13.6 NW 13.6 0.0 0.0
07:31 8.3 6.8 90 1032.7 8.3 N 13.6 0.0 0.0
07:32 8.3 6.8 90 1032.7 5.4 N 13.6 0.0 0.0
07:33 8.3 6.8 90 1032.8 10.7 WSW 13.6 0.0 0.0
07:34 8.3 6.8 90 1032.8 7.6 N 13.6 0.0 0.0
07:35 8.3 6.6 89 1032.8 9.8 NE 13.6 0.0 0.0
07:36 8.3 6.6 89 1032.9 6.9 N 13.6 0.0 0.0
07:37 8.3 6.6 89 1032.8 4.5 N 13.6 0.0 0.0
07:38 8.4 6.7 89 1033.0 5.4 N 13.6 0.0 0.0
07:39 8.4 6.7 89 1032.9 6.9 NW 13.6 0.0 0.0
07:41 8.4 6.7 89 1033.1 9.8 NW 10.7 0.0 0.0
07:42 8.4 6.7 89 1032.9 9.8 WNW 10.7 0.0 0.0
07:43 8.4 6.5 88 1032.9 7.6 NW 10.7 0.0 0.0
07:44 8.4 6.5 88 1032.8 12.1 S 12.1 0.0 0.0
07:45 8.4 6.5 88 1032.8 12.1 S 12.1 0.0 0.0
07:46 8.4 6.5 88 1032.8 7.6 NW 13.0 0.0 0.0
07:47 8.4 6.5 88 1033.0 9.2 W 13.0 0.0 0.0
07:48 8.4 6.5 88 1032.9 7.6 NW 13.0 0.0 0.0
07:49 8.4 6.5 88 1033.1 7.6 NW 13.0 0.0 0.0
07:50 8.4 6.5 88 1032.9 9.2 NW 13.0 0.0 0.0
07:51 8.4 6.5 88 1033.0 7.6 NW 13.0 0.0 0.0
07:52 8.4 6.5 88 1032.8 9.8 N 13.0 0.0 0.0
07:53 8.5 6.6 88 1032.9 6.9 NW 13.0 0.0 0.0
07:54 8.5 6.6 88 1032.9 6.0 NW 13.0 0.0 0.0
07:55 8.5 6.6 88 1032.8 3.8 N 13.0 0.0 0.0
07:57 8.5 6.6 88 1032.9 4.5 N 10.7 0.0 0.0
07:58 8.5 6.6 88 1033.0 3.8 NW 10.7 0.0 0.0
07:59 8.5 6.6 88 1033.1 5.4 W 10.7 0.0 0.0
08:00 8.5 6.6 88 1033.0 3.1 SE 10.7 0.0 0.0
08:01 8.5 6.6 88 1033.0 3.1 SE 9.8 0.0 0.0
08:02 8.5 6.6 88 1032.9 3.1 SE 9.8 0.0 0.0
08:03 8.5 6.6 88 1033.0 3.1 SE 6.9 0.0 0.0
08:04 8.5 6.6 88 1033.0 3.1 SE 6.0 0.0 0.0
08:05 8.5 6.6 88 1033.1 3.1 SE 5.4 0.0 0.0
08:06 8.5 6.6 88 1033.1 3.8 NNE 7.6 0.0 0.0
08:07 8.5 6.6 88 1033.0 5.4 NE 7.6 0.0 0.0
08:08 8.4 6.5 88 1033.1 6.0 NE 7.6 0.0 0.0
08:09 8.4 6.5 88 1033.1 3.1 NNE 7.6 0.0 0.0
08:11 8.4 6.5 88 1033.1 6.9 N 7.6 0.0 0.0
08:12 8.4 6.5 88 1033.2 3.8 N 7.6 0.0 0.0
08:13 8.4 6.5 88 1033.1 2.2 N 7.6 0.0 0.0
08:14 8.4 6.5 88 1033.2 3.1 NE 7.6 0.0 0.0
08:15 8.4 6.5 88 1033.2 3.1 NE 7.6 0.0 0.0
08:16 8.4 6.5 88 1033.0 3.1 SE 6.9 0.0 0.0
08:17 8.4 6.5 88 1033.0 0.7 NNE 6.9 0.0 0.0
08:18 8.4 6.5 88 1033.0 3.8 NE 6.9 0.0 0.0
08:19 8.3 6.4 88 1033.0 2.2 W 6.9 0.0 0.0
08:20 8.3 6.4 88 1033.1 5.4 N 6.9 0.0 0.0
08:21 8.3 6.4 88 1033.1 4.5 NNW 6.0 0.0 0.0
08:22 8.3 6.4 88 1033.2 3.8 N 5.4 0.0 0.0
08:23 8.3 6.4 88 1033.1 3.1 NW 5.4 0.0 0.0
08:25 8.3 6.4 88 1033.1 5.4 NW 5.4 0.0 0.0
08:26 8.3 6.4 88 1033.2 4.5 N 5.4 0.0 0.0
08:27 8.3 6.4 88 1033.1 3.8 N 5.4 0.0 0.0
08:28 8.3 6.4 88 1033.2 3.8 NW 5.4 0.0 0.0
08:29 8.3 6.4 88 1033.2 4.5 NW 5.4 0.0 0.0
08:30 8.3 6.4 88 1033.3 3.8 W 5.4 0.0 0.0
08:31 8.3 6.4 88 1033.3 4.5 E 5.4 0.0 0.0
08:32 8.3 6.6 89 1033.3 5.4 NE 5.4 0.0 0.0
08:33 8.3 6.4 88 1033.3 3.8 NW 5.4 0.0 0.0
08:34 8.3 6.4 88 1033.3 3.8 N 5.4 0.0 0.0
08:35 8.2 6.3 88 1033.3 3.8 N 5.4 0.0 0.0
08:36 8.3 6.6 89 1033.3 6.0 N 6.0 0.0 0.0
08:37 8.3 6.6 89 1033.3 4.5 NE 6.0 0.0 0.0
08:39 8.3 6.6 89 1033.3 3.1 NW 6.0 0.0 0.0
08:41 8.2 6.5 89 1033.2 3.1 NW 6.0 0.0 0.0
08:42 8.2 6.5 89 1033.2 2.2 N 6.0 0.0 0.0
08:43 8.2 6.5 89 1033.3 3.8 NE 6.0 0.0 0.0
08:44 8.2 6.5 89 1033.3 3.8 SW 6.0 0.0 0.0
08:45 8.2 6.5 89 1033.2 3.1 NE 6.0 0.0 0.0
08:46 8.2 6.5 89 1033.3 3.1 NE 6.0 0.0 0.0
08:48 8.2 6.5 89 1033.3 1.6 N 3.8 0.0 0.0
08:49 8.2 6.5 89 1033.3 3.1 NE 3.8 0.0 0.0
08:50 8.2 6.5 89 1033.3 3.1 NE 3.8 0.0 0.0
08:51 8.2 6.5 89 1033.3 2.2 N 3.8 0.0 0.0
08:52 8.2 6.5 89 1033.3 3.1 NE 3.8 0.0 0.0
08:53 8.2 6.5 89 1033.3 4.5 ENE 4.5 0.0 0.0
08:54 8.1 6.4 89 1033.3 3.8 NW 4.5 0.0 0.0
08:55 8.1 6.4 89 1033.3 3.8 NW 4.5 0.0 0.0
08:56 8.1 6.4 89 1033.4 2.2 NE 4.5 0.0 0.0
08:57 8.1 6.4 89 1033.4 4.5 N 4.5 0.0 0.0
08:58 8.1 6.4 89 1033.4 3.8 NE 4.5 0.0 0.0
08:59 8.1 6.4 89 1033.3 3.8 ENE 4.5 0.0 0.0
09:00 8.1 6.4 89 1033.2 3.8 ENE 4.5 0.0 0.0
09:02 8.1 6.4 89 1033.4 3.8 ENE 4.5 0.0 0.0
09:03 8.1 6.4 89 1033.2 3.8 ENE 4.5 0.0 0.0
09:04 8.1 6.4 89 1033.1 3.8 ENE 4.5 0.0 0.0
09:05 8.1 6.4 89 1033.2 6.0 NE 6.0 0.0 0.0
09:07 8.0 6.3 89 1033.5 6.0 N 6.0 0.0 0.0
09:08 8.0 6.3 89 1033.5 6.0 N 6.0 0.0 0.0
09:09 8.0 6.3 89 1033.5 5.4 NE 6.0 0.0 0.0
09:10 8.0 6.3 89 1033.5 5.4 NE 6.0 0.0 0.0
09:11 8.0 6.3 89 1033.5 3.1 N 6.0 0.0 0.0
09:12 8.0 6.3 89 1033.5 5.4 WNW 6.0 0.0 0.0
09:13 8.0 6.3 89 1033.3 3.8 N 6.0 0.0 0.0
09:14 7.9 6.2 89 1033.4 5.4 N 6.0 0.0 0.0
09:15 7.9 6.2 89 1033.4 4.5 N 6.0 0.0 0.0
09:16 7.9 6.2 89 1033.5 2.2 NW 6.0 0.0 0.0
09:17 7.9 6.2 89 1033.4 5.4 N 6.0 0.0 0.0
09:18 7.9 6.2 89 1033.5 3.8 N 6.0 0.0 0.0
09:19 7.9 6.2 89 1033.4 6.9 NW 6.9 0.0 0.0
09:20 7.9 6.2 89 1033.3 4.5 NW 6.9 0.0 0.0
09:22 7.9 6.4 90 1033.4 2.2 N 6.9 0.0 0.0
09:23 7.9 6.4 90 1033.3 4.5 NW 6.9 0.0 0.0
09:24 7.9 6.4 90 1033.3 4.5 NW 6.9 0.0 0.0
09:25 7.9 6.4 90 1033.5 6.0 NW 6.9 0.0 0.0
09:26 7.9 6.4 90 1033.5 5.4 N 6.9 0.0 0.0
09:27 7.9 6.4 90 1033.4 4.5 NE 6.9 0.0 0.0
09:28 7.9 6.4 90 1033.5 3.8 NW 6.9 0.0 0.0
09:29 7.9 6.4 90 1033.5 7.6 N 7.6 0.0 0.0
09:30 7.9 6.4 90 1033.4 5.4 N 7.6 0.0 0.0
09:31 7.9 6.4 90 1033.5 5.4 N 7.6 0.0 0.1
09:32 7.9 6.4 90 1033.6 5.4 NE 7.6 0.8 0.1
09:33 8.0 6.5 90 1033.6 6.0 NNE 7.6 0.8 0.1
09:34 8.0 6.5 90 1033.8 8.3 NE 8.3 0.8 0.1
09:36 8.0 6.5 90 1033.7 8.3 NE 8.3 2.3 0.2
09:37 8.0 6.5 90 1033.8 5.4 NE 8.3 1.5 0.2
09:38 8.0 6.5 90 1033.8 6.9 N 8.3 1.5 0.2
09:39 8.0 6.5 90 1033.8 6.9 NE 8.3 1.5 0.2
09:40 8.0 6.5 90 1033.8 6.0 NE 8.3 0.8 0.2
09:41 8.0 6.5 90 1033.8 7.6 NE 8.3 0.0 0.2
09:42 7.9 6.4 90 1033.9 4.5 NE 8.3 0.0 0.2
09:43 7.9 6.4 90 1033.8 6.0 N 8.3 0.0 0.2
09:44 7.9 6.4 90 1034.0 7.6 N 8.3 0.0 0.2
09:45 7.9 6.4 90 1033.9 8.3 N 8.3 0.0 0.2
09:46 7.9 6.4 90 1033.9 7.6 NE 8.3 0.0 0.2
09:47 7.8 6.3 90 1033.8 6.9 N 8.3 0.0 0.2
09:48 7.8 6.3 90 1033.8 5.4 NE 8.3 0.0 0.2
09:50 7.8 6.3 90 1033.9 6.9 N 9.2 0.0 0.2
09:51 7.8 6.3 90 1033.7 3.8 NE 9.2 0.8 0.3
09:52 7.8 6.3 90 1033.7 3.8 NE 9.2 0.8 0.3
09:53 7.8 6.3 90 1033.9 6.0 NE 9.2 0.8 0.3
09:54 7.7 6.2 90 1033.8 5.4 NE 9.2 0.8 0.3
09:55 7.7 6.2 90 1033.7 6.0 NW 9.2 0.8 0.3
09:56 7.7 6.2 90 1033.8 5.4 NE 9.2 0.0 0.3
09:57 7.7 6.2 90 1033.7 6.0 NE 9.2 0.0 0.3
09:58 7.7 6.2 90 1033.9 6.9 N 9.2 0.0 0.3
09:59 7.6 6.1 90 1033.8 6.0 N 9.2 0.0 0.3
10:00 7.6 6.1 90 1033.7 6.0 N 6.9 0.0 0.3
10:01 7.6 6.1 90 1033.9 6.0 N 6.9 0.0 0.3
10:02 7.6 6.1 90 1033.8 6.0 N 6.9 0.0 0.3
10:04 7.6 6.1 90 1034.0 6.0 N 6.9 0.0 0.3
10:05 7.6 6.2 91 1034.0 6.0 NW 6.9 0.0 0.3
10:06 7.5 6.1 91 1033.9 4.5 E 6.9 0.8 0.3
10:07 7.6 6.2 91 1033.8 6.0 NE 6.9 0.8 0.3
10:08 7.5 6.1 91 1033.9 4.5 NE 6.9 0.8 0.3
10:09 7.5 6.1 91 1033.8 4.5 N 6.0 0.8 0.3
10:10 7.5 6.1 91 1034.0 5.4 N 6.0 0.8 0.3
10:11 7.5 6.1 91 1033.9 4.5 ENE 6.0 0.0 0.3
10:12 7.5 6.1 91 1033.9 4.5 NW 6.0 0.0 0.3
10:13 7.5 6.1 91 1034.0 3.1 NE 6.0 0.0 0.3
10:15 7.5 6.1 91 1034.2 3.8 NE 6.0 0.0 0.3
10:16 7.4 6.0 91 1034.0 3.8 ENE 6.0 0.0 0.3
10:17 7.4 6.0 91 1034.1 2.2 N 5.4 0.0 0.3
10:18 7.6 6.2 91 1034.0 3.1 NE 5.4 0.0 0.3
10:19 7.4 6.0 91 1034.1 6.0 NE 6.0 0.0 0.3
10:21 7.4 6.0 91 1034.0 2.2 N 6.0 0.0 0.3
10:22 7.4 6.0 91 1034.0 3.1 N 6.0 0.0 0.3
10:23 7.4 6.0 91 1034.2 2.2 N 6.0 0.0 0.3
10:24 7.4 6.0 91 1034.2 2.2 NE 6.0 0.0 0.3
10:25 7.4 6.0 91 1034.1 3.1 E 6.0 0.0 0.3
10:26 7.4 6.2 92 1033.9 3.1 NNE 6.0 0.0 0.3
10:27 7.4 6.0 91 1034.0 2.2 E 6.0 0.0 0.3
10:28 7.4 6.2 92 1034.0 2.2 N 6.0 0.0 0.3
10:29 7.4 6.2 92 1034.2 2.2 NE 6.0 0.0 0.3
10:30 7.4 6.2 92 1033.9 3.1 NE 3.8 0.0 0.3
10:31 7.4 6.2 92 1034.0 2.2 NE 3.1 0.0 0.3
10:32 7.4 6.2 92 1034.1 3.1 N 3.1 0.0 0.3
10:33 7.4 6.2 92 1034.0 3.1 N 3.1 0.0 0.3
10:35 7.4 6.2 92 1033.9 2.2 NW 3.1 0.0 0.3
10:36 7.4 6.2 92 1033.9 5.4 NE 5.4 0.0 0.3
10:37 7.4 6.2 92 1034.1 1.6 NE 5.4 0.0 0.3
10:38 7.4 6.2 92 1034.0 3.1 N 5.4 0.0 0.3
10:39 7.4 6.2 92 1034.0 3.1 NE 5.4 0.0 0.3
10:40 7.4 6.2 92 1034.0 3.8 NE 5.4 0.0 0.3
10:41 7.4 6.2 92 1034.1 1.6 E 5.4 0.0 0.3
10:42 7.4 6.2 92 1034.1 3.8 WNW 5.4 0.0 0.3
10:43 7.4 6.2 92 1033.9 2.2 NE 5.4 0.0 0.3
10:44 7.4 6.2 92 1034.2 3.1 NE 5.4 0.0 0.3
10:45 7.4 6.2 92 1033.8 3.8 N 5.4 0.0 0.3
10:46 7.4 6.2 92 1034.0 3.1 N 5.4 0.0 0.3
10:47 7.4 6.2 92 1034.0 3.8 N 3.8 0.0 0.3
10:48 7.4 6.2 92 1034.2 2.2 N 3.8 0.0 0.3
10:50 7.4 6.3 93 1033.9 2.2 N 3.8 0.0 0.3
10:51 7.4 6.2 92 1034.0 3.1 NW 3.8 0.0 0.3
10:52 7.4 6.2 92 1034.0 3.1 NW 3.8 0.0 0.3
10:53 7.4 6.3 93 1034.2 2.2 N 3.8 0.0 0.3
10:54 7.4 6.2 92 1034.0 1.6 N 3.8 0.0 0.3
10:55 7.4 6.3 93 1034.1 3.8 NE 3.8 0.0 0.3
10:56 7.4 6.3 93 1034.1 3.8 NW 3.8 0.0 0.3
10:57 7.4 6.3 93 1034.1 2.2 NW 3.8 0.0 0.3
10:58 7.4 6.3 93 1034.0 3.1 NW 3.8 0.0 0.3
10:59 7.4 6.3 93 1034.2 3.8 NE 3.8 0.0 0.3
11:00 7.4 6.3 93 1034.1 3.8 NE 3.8 0.0 0.3
11:01 7.4 6.3 93 1034.2 3.8 NE 3.8 0.0 0.3
11:02 7.4 6.3 93 1034.1 3.8 NE 3.8 0.0 0.3
11:03 7.4 6.3 93 1034.2 3.8 NE 3.8 0.0 0.3
11:04 7.4 6.3 93 1034.1 3.8 NE 3.8 0.0 0.3
11:05 7.4 6.3 93 1034.1 1.6 N 3.8 0.0 0.3
11:06 7.4 6.3 93 1034.2 3.8 N 3.8 0.0 0.3
11:07 7.4 6.3 93 1034.1 3.1 NW 4.5 0.0 0.3
11:09 7.4 6.3 93 1034.0 3.1 NE 4.5 0.0 0.3
11:10 7.4 6.3 93 1034.1 6.0 N 6.0 0.0 0.3
11:11 7.4 6.3 93 1034.1 6.9 NE 6.9 0.0 0.3
11:12 7.5 6.4 93 1034.1 3.1 E 6.9 0.0 0.3
11:13 7.5 6.4 93 1034.1 5.4 NW 6.9 0.0 0.3
11:14 7.3 6.2 93 1034.1 3.8 NW 6.9 0.0 0.3
11:15 7.5 6.4 93 1034.1 3.8 NW 6.9 0.0 0.3
11:16 7.5 6.4 93 1034.1 2.2 N 6.9 0.0 0.3
11:17 7.5 6.4 93 1034.2 3.1 N 6.9 0.0 0.3
11:18 7.5 6.4 93 1034.1 6.0 NW 6.9 0.0 0.3
11:19 7.5 6.4 93 1034.1 5.4 N 6.9 0.0 0.3
11:20 7.5 6.4 93 1034.2 6.9 WNW 6.9 0.0 0.3
11:21 7.5 6.4 93 1034.1 5.4 N 6.9 0.0 0.3
11:22 7.5 6.4 93 1034.2 6.9 NW 6.9 0.0 0.3
11:24 7.6 6.5 93 1034.1 6.0 N 6.9 0.0 0.3
11:25 7.6 6.5 93 1034.0 5.4 NW 6.9 0.0 0.3
11:26 7.6 6.5 93 1034.0 5.4 NW 6.9 0.0 0.3
11:27 7.5 6.4 93 1034.1 3.1 N 6.9 0.0 0.3
11:28 7.6 6.5 93 1034.1 3.8 NW 6.9 0.0 0.3
11:29 7.6 6.5 93 1034.0 5.4 N 6.9 0.0 0.3
11:30 7.6 6.5 93 1034.1 3.8 N 6.9 0.0 0.3
11:31 7.6 6.5 93 1034.1 3.8 NW 6.9 0.0 0.3
11:32 7.6 6.7 94 1034.1 7.6 N 7.6 0.0 0.3
11:33 7.7 6.8 94 1034.0 6.0 N 7.6 0.0 0.3
11:34 7.7 6.6 93 1034.0 6.0 WNW 7.6 0.0 0.3
11:35 7.7 6.6 93 1034.0 9.2 N 9.2 0.0 0.3
11:36 7.7 6.6 93 1033.9 10.7 NW 10.7 0.0 0.3
11:37 7.7 6.6 93 1033.9 7.6 SE 10.7 0.0 0.3
11:39 7.7 6.6 93 1034.0 5.4 NW 10.7 0.0 0.3
11:40 7.7 6.6 93 1034.0 5.4 NW 10.7 0.0 0.3
11:41 7.7 6.6 93 1034.0 5.4 NW 10.7 0.0 0.3
11:42 7.7 6.6 93 1034.0 5.4 SE 10.7 0.0 0.3
11:43 7.7 6.6 93 1033.9 3.1 E 10.7 0.0 0.3
11:44 7.7 6.8 94 1033.9 3.8 N 10.7 0.0 0.3
11:45 7.7 6.8 94 1033.9 3.8 NW 10.7 0.0 0.3
11:46 7.7 6.8 94 1033.8 4.5 NE 10.7 0.0 0.3
11:47 7.7 6.6 93 1033.9 6.0 E 9.8 0.0 0.3
11:48 7.7 6.6 93 1033.9 5.4 NE 7.6 0.0 0.3
11:49 7.7 6.8 94 1034.0 5.4 NW 7.6 0.0 0.3
11:50 7.7 6.6 93 1034.0 5.4 E 7.6 0.0 0.3
11:51 7.7 6.8 94 1033.8 6.0 NW 6.0 0.0 0.3
11:52 7.7 6.6 93 1034.0 8.3 NW 8.3 0.0 0.3
11:54 7.7 6.6 93 1033.9 8.3 N 8.3 0.0 0.3
11:55 7.7 6.6 93 1034.0 3.8 NE 8.3 0.0 0.3
11:56 7.6 6.5 93 1033.9 6.0 NW 8.3 0.0 0.3
11:57 7.7 6.8 94 1033.8 5.4 W 8.3 0.0 0.3
11:58 7.6 6.5 93 1033.8 6.0 N 8.3 0.0 0.3
11:59 7.8 6.9 94 1033.8 5.4 N 8.3 0.0 0.3
12:00 7.8 6.9 94 1033.8 3.8 N 8.3 0.0 0.3
12:01 7.8 6.9 94 1033.8 3.8 N 8.3 0.0 0.3
12:02 7.8 6.9 94 1033.8 3.8 NE 8.3 0.0 0.3
12:03 7.8 6.7 93 1033.9 3.8 NW 8.3 0.0 0.3
12:04 7.8 6.9 94 1033.9 1.6 N 6.0 0.0 0.3
12:05 7.8 6.9 94 1033.9 4.5 WNW 6.0 0.0 0.3
12:06 7.8 6.9 94 1033.8 3.8 N 6.0 0.0 0.3
12:07 7.9 7.0 94 1033.9 3.8 WSW 6.0 0.0 0.3
12:09 7.9 7.0 94 1033.8 3.1 N 5.4 0.0 0.3
12:10 7.9 7.0 94 1033.8 2.2 NW 5.4 0.0 0.3
12:11 7.9 7.0 94 1033.8 2.2 NW 5.4 0.0 0.3
12:12 7.9 7.0 94 1033.6 3.8 N 5.4 0.0 0.3
12:13 7.9 7.0 94 1033.8 5.4 NW 5.4 0.0 0.3
12:14 7.9 7.0 94 1033.7 1.6 NE 5.4 0.0 0.3
12:15 8.0 7.1 94 1033.7 2.2 NE 5.4 0.0 0.3
12:16 8.0 7.1 94 1033.9 3.8 W 5.4 0.0 0.3
12:17 8.0 7.1 94 1033.7 1.6 N 5.4 0.0 0.3
12:18 8.0 7.1 94 1033.8 3.8 N 5.4 0.0 0.3
12:19 8.0 7.1 94 1033.7 3.1 NE 5.4 0.0 0.3
12:20 8.0 7.1 94 1033.7 4.5 NE 5.4 0.0 0.3
12:21 8.1 7.2 94 1033.8 4.5 N 5.4 0.0 0.3
12:22 8.1 7.2 94 1033.8 3.8 NE 5.4 0.0 0.3
12:23 8.1 7.2 94 1033.8 2.2 N 4.5 0.0 0.3
12:25 8.1 7.2 94 1033.6 3.1 N 4.5 0.0 0.3
12:26 8.1 7.2 94 1033.7 3.8 NW 4.5 0.0 0.3
12:27 8.2 7.3 94 1033.7 4.5 N 4.5 0.0 0.3
12:28 8.1 7.2 94 1033.7 6.0 NE 6.0 0.0 0.3
12:29 8.2 7.3 94 1033.7 3.8 N 6.0 0.0 0.3
12:30 8.2 7.3 94 1033.7 3.8 N 6.0 0.0 0.3
12:31 8.2 7.3 94 1033.7 5.4 NE 6.0 0.0 0.3
12:32 8.2 7.3 94 1033.8 3.8 NE 6.0 0.0 0.3
12:33 8.2 7.3 94 1033.8 2.2 SW 6.0 0.0 0.3
12:34 8.2 7.3 94 1033.8 6.0 N 6.0 0.0 0.3
12:35 8.2 7.3 94 1033.6 4.5 NE 6.0 0.0 0.3
12:36 8.2 7.3 94 1033.7 3.8 N 6.0 0.0 0.3
12:37 8.2 7.3 94 1033.8 6.9 W 6.9 0.0 0.3
12:38 8.2 7.3 94 1033.6 2.2 W 6.9 0.0 0.3
12:40 8.2 7.3 94 1033.6 3.1 NW 6.9 0.0 0.3
12:41 8.2 7.3 94 1033.7 2.2 N 6.9 0.0 0.3
12:42 8.3 7.4 94 1033.5 2.2 N 6.9 0.0 0.3
12:43 8.2 7.3 94 1033.7 1.6 NE 6.9 0.0 0.3
12:44 8.2 7.3 94 1033.7 4.5 NW 6.9 0.0 0.3
12:45 8.3 7.4 94 1033.6 3.8 NE 6.9 0.0 0.3
12:46 8.3 7.4 94 1033.6 3.8 NW 6.9 0.0 0.3
12:47 8.3 7.4 94 1033.7 3.8 N 6.9 0.0 0.3
12:48 8.3 7.4 94 1033.7 3.8 NNE 6.9 0.0 0.3
12:49 8.3 7.4 94 1033.5 6.9 NE 6.9 0.0 0.3
12:50 8.3 7.4 94 1033.6 3.1 NW 6.9 0.0 0.3
12:51 8.3 7.4 94 1033.6 3.1 N 6.9 0.0 0.3
12:52 8.3 7.2 93 1033.5 6.9 N 6.9 0.0 0.3
12:53 8.3 7.4 94 1033.5 4.5 NE 6.9 0.0 0.3
12:54 8.3 7.2 93 1033.5 4.5 N 6.9 0.0 0.3
12:56 8.4 7.3 93 1033.6 4.5 NW 6.9 0.0 0.3
12:57 8.4 7.5 94 1033.6 2.2 N 6.9 0.0 0.3
12:58 8.4 7.3 93 1033.6 3.8 NW 6.9 0.0 0.3
12:59 8.4 7.3 93 1033.7 4.5 N 6.9 0.0 0.3
13:00 8.4 7.3 93 1033.6 4.5 N 6.9 0.0 0.3
13:01 8.4 7.3 93 1033.6 4.5 NE 6.9 0.0 0.3
13:02 8.3 7.2 93 1033.5 5.4 E 6.9 0.0 0.3
13:03 8.4 7.3 93 1033.4 4.5 NE 5.4 0.0 0.3
13:04 8.4 7.3 93 1033.5 3.8 E 5.4 0.0 0.3
13:05 8.4 7.3 93 1033.7 6.9 E 6.9 0.0 0.3
13:06 8.4 7.3 93 1033.7 3.1 NW 6.9 0.0 0.3
13:07 8.5 7.4 93 1033.6 4.5 NW 6.9 0.0 0.3
13:08 8.5 7.4 93 1033.6 3.1 W 6.9 0.0 0.3
13:09 8.5 7.4 93 1033.6 1.6 WNW 6.9 0.0 0.3
13:10 8.5 7.4 93 1033.7 2.2 E 6.9 0.0 0.3
13:11 8.5 7.4 93 1033.5 3.8 N 6.9 0.0 0.3
13:12 8.5 7.4 93 1033.5 4.5 NW 6.9 0.0 0.3
13:13 8.5 7.4 93 1033.6 6.9 NW 6.9 0.0 0.3
13:14 8.5 7.4 93 1033.5 5.4 NW 6.9 0.0 0.3
13:15 8.5 7.4 93 1033.5 3.8 W 6.9 0.0 0.3
13:16 8.5 7.4 93 1033.4 1.6 NW 6.9 0.0 0.3
13:18 8.6 7.5 93 1033.6 1.6 NW 6.9 0.0 0.3
13:19 8.6 7.5 93 1033.5 3.1 WSW 6.9 0.0 0.3
13:20 8.6 7.5 93 1033.5 3.8 NW 6.9 0.0 0.3
13:21 8.6 7.5 93 1033.4 3.1 N 6.9 0.0 0.3
13:22 8.6 7.5 93 1033.5 5.4 N 6.9 0.0 0.3
13:23 8.6 7.5 93 1033.5 2.2 NW 6.9 0.0 0.3
13:24 8.6 7.5 93 1033.4 3.1 NE 5.4 0.0 0.3
13:25 8.6 7.5 93 1033.3 5.4 N 6.0 0.0 0.3
13:26 8.6 7.5 93 1033.5 3.8 NW 6.0 0.0 0.3
13:27 8.6 7.5 93 1033.4 4.5 NE 6.0 0.0 0.3
13:28 8.6 7.5 93 1033.2 4.5 N 6.0 0.0 0.3
13:29 8.6 7.5 93 1033.4 6.0 NW 6.0 0.0 0.3
13:30 8.7 7.6 93 1033.2 4.5 NW 6.0 0.0 0.3
13:31 8.7 7.6 93 1033.2 3.8 N 6.0 0.0 0.3
13:33 8.7 7.6 93 1033.3 4.5 NW 6.0 0.0 0.3
13:34 8.7 7.6 93 1033.4 3.1 N 6.0 0.0 0.3
13:35 8.7 7.6 93 1033.2 6.0 NW 6.0 0.0 0.3
13:36 8.7 7.6 93 1033.3 3.1 N 6.0 0.0 0.3
13:37 8.7 7.6 93 1033.3 3.8 NW 6.0 0.0 0.3
13:38 8.7 7.6 93 1033.2 3.8 N 6.0 0.0 0.3
13:39 8.7 7.6 93 1033.3 3.1 NW 6.0 0.0 0.3
13:40 8.8 7.7 93 1033.3 4.5 N 6.0 0.0 0.3
13:41 8.8 7.7 93 1033.3 6.9 N 6.9 0.0 0.3
13:42 8.7 7.6 93 1033.3 5.4 WNW 6.9 0.0 0.3
13:43 8.8 7.7 93 1033.3 4.5 NE 6.9 0.0 0.3
13:44 8.8 7.7 93 1033.3 6.0 WNW 6.9 0.0 0.3
13:45 8.8 7.7 93 1033.2 4.5 NW 6.9 0.0 0.3
13:46 8.8 7.7 93 1033.2 3.8 W 6.9 0.0 0.3
13:48 8.8 7.7 93 1033.3 5.4 N 6.9 0.0 0.3
13:49 8.8 7.7 93 1033.3 5.4 NW 6.9 0.0 0.3
13:50 8.8 7.7 93 1033.1 3.1 NW 6.9 0.0 0.3
13:51 8.8 7.7 93 1033.1 2.2 N 6.9 0.0 0.3
13:52 8.9 7.8 93 1033.2 3.1 NW 6.0 0.0 0.3
13:53 8.9 7.8 93 1033.2 5.4 N 6.0 0.0 0.3
13:54 8.9 7.8 93 1033.2 6.0 S 6.0 0.0 0.3
13:55 8.9 7.8 93 1033.1 4.5 N 6.0 0.0 0.3
13:56 8.9 7.8 93 1033.1 1.6 NW 6.0 0.0 0.3
13:57 8.9 7.8 93 1033.2 1.6 NE 6.0 0.0 0.3
13:58 8.9 7.8 93 1033.2 5.4 NW 6.0 0.0 0.3
13:59 8.9 7.8 93 1033.2 3.1 N 6.0 0.0 0.3
14:00 8.9 7.8 93 1033.2 3.1 N 6.0 0.0 0.3
14:01 8.9 7.8 93 1033.1 4.5 S 6.0 0.0 0.3
14:02 8.9 7.8 93 1033.2 5.4 NW 6.0 0.0 0.3
14:04 8.9 7.8 93 1033.3 4.5 NW 6.0 0.0 0.3
14:05 8.9 7.8 93 1033.2 3.8 NW 5.4 0.0 0.3
14:06 9.0 7.9 93 1033.3 6.9 N 6.9 0.0 0.3
14:07 9.0 7.9 93 1033.3 4.5 N 6.9 0.0 0.3
14:08 9.0 7.9 93 1033.2 3.8 N 6.9 0.0 0.3
14:09 9.0 7.9 93 1033.2 3.8 N 6.9 0.0 0.3
14:10 9.0 7.9 93 1033.3 4.5 NW 6.9 0.0 0.3
14:11 9.0 7.9 93 1033.2 4.5 NW 6.9 0.0 0.3
14:12 9.0 7.9 93 1033.3 5.4 NW 6.9 0.0 0.3
14:13 9.0 7.9 93 1033.1 6.9 N 6.9 0.0 0.3
14:14 9.0 7.9 93 1033.3 3.8 NW 6.9 0.0 0.3
14:15 9.0 7.9 93 1033.1 6.0 NW 6.9 0.0 0.3
14:16 9.0 7.9 93 1033.2 6.9 N 6.9 0.0 0.3
14:17 9.0 7.9 93 1033.2 5.4 N 6.9 0.0 0.3
14:18 9.0 7.9 93 1033.3 5.4 N 6.9 0.0 0.3
14:19 9.0 7.9 93 1033.2 2.2 N 6.9 0.0 0.3
14:21 9.0 7.9 93 1033.3 5.4 NW 6.9 0.0 0.3
14:22 9.0 7.9 93 1033.3 3.8 WNW 6.9 0.0 0.3
14:23 9.1 8.0 93 1033.2 6.0 ENE 6.9 0.0 0.3
14:24 9.1 8.0 93 1033.3 3.8 N 6.9 0.0 0.3
14:25 9.1 8.0 93 1033.3 3.8 NW 6.9 0.0 0.3
14:26 9.1 8.0 93 1033.1 3.8 SW 6.9 0.0 0.3
14:27 9.1 8.0 93 1033.3 3.1 N 6.0 0.0 0.3
14:28 9.1 8.0 93 1033.2 6.9 WNW 6.9 0.0 0.3
14:29 9.1 8.0 93 1033.2 3.8 N 6.9 0.0 0.3
14:30 9.1 8.0 93 1033.2 5.4 NW 6.9 0.0 0.3
14:31 9.1 8.0 93 1033.2 6.9 NW 6.9 0.0 0.3
14:32 9.1 8.0 93 1033.2 6.9 WNW 6.9 0.0 0.3
14:33 9.1 8.0 93 1033.3 6.9 NW 6.9 0.0 0.3
14:34 9.1 8.0 93 1033.2 3.1 SE 6.9 0.0 0.3
14:35 9.1 8.0 93 1033.1 4.5 NW 6.9 0.0 0.3
14:36 9.1 8.0 93 1033.1 3.1 W 6.9 0.0 0.3
14:37 9.1 8.0 93 1033.1 6.0 N 6.9 0.0 0.3
14:38 9.1 8.0 93 1033.3 3.8 N 6.9 0.0 0.3
14:39 9.1 8.0 93 1033.2 8.3 NW 8.3 0.0 0.3
14:40 9.1 8.0 93 1033.2 4.5 E 8.3 0.0 0.3
14:41 9.1 8.0 93 1033.3 5.4 WNW 8.3 0.0 0.3
14:42 9.1 8.0 93 1033.1 4.5 W 8.3 0.0 0.3
14:43 9.1 8.0 93 1033.3 3.1 N 8.3 0.0 0.3
14:44 9.1 8.0 93 1033.1 2.2 W 8.3 0.0 0.3
14:45 9.1 8.0 93 1033.2 6.0 NW 8.3 0.0 0.3
14:46 9.1 8.0 93 1033.3 3.8 WNW 8.3 0.0 0.3
14:47 9.1 8.0 93 1033.3 3.8 WNW 8.3 0.0 0.3
14:48 9.1 8.0 93 1033.2 3.1 SE 8.3 0.0 0.3
14:49 9.1 8.0 93 1033.1 3.8 N 8.3 0.0 0.3
14:50 9.1 8.0 93 1033.3 3.1 W 7.6 0.0 0.3
14:51 9.1 8.0 93 1033.2 5.4 NW 6.0 0.0 0.3
14:52 9.1 8.0 93 1033.2 4.5 NW 6.0 0.0 0.3
14:53 9.1 8.0 93 1033.3 3.8 NW 6.0 0.0 0.3
14:54 9.1 8.0 93 1033.3 6.9 N 6.9 0.0 0.3
14:55 9.1 8.0 93 1033.3 6.0 NE 6.9 0.0 0.3
14:56 9.1 8.0 93 1033.2 3.1 N 6.9 0.0 0.3
14:57 9.1 8.0 93 1033.2 4.5 N 6.9 0.0 0.3
14:58 9.0 7.9 93 1033.3 3.1 NW 6.9 0.0 0.3
14:59 9.0 7.9 93 1033.4 3.1 NW 6.9 0.0 0.3
15:00 9.0 7.9 93 1033.3 3.8 N 6.9 0.0 0.3
15:01 9.0 7.9 93 1033.3 3.8 N 6.9 0.0 0.3
15:02 9.0 7.9 93 1033.2 3.8 N 6.9 0.0 0.3
15:03 9.0 7.9 93 1033.2 3.8 N 6.9 0.0 0.3
15:04 9.0 7.9 93 1033.3 3.8 N 6.0 0.0 0.3
15:05 9.0 7.8 92 1033.3 4.5 W 5.4 0.0 0.3
15:06 9.0 7.8 92 1033.3 1.6 NE 4.5 0.0 0.3
15:07 9.0 7.8 92 1033.3 3.8 NW 4.5 0.0 0.3
15:08 9.0 7.8 92 1033.3 3.8 NW 4.5 0.0 0.3
15:09 9.0 7.8 92 1033.3 3.8 NNE 4.5 0.0 0.3
15:10 9.0 7.8 92 1033.3 3.8 NNE 4.5 0.0 0.3
15:11 9.0 7.8 92 1033.3 3.8 NE 4.5 0.0 0.3
15:12 9.0 7.8 92 1033.3 3.8 NW 4.5 0.0 0.3
15:13 9.0 7.8 92 1033.3 2.2 NW 4.5 0.0 0.3
15:14 9.0 7.8 92 1033.3 3.1 N 4.5 0.0 0.3
15:15 9.0 7.8 92 1033.4 3.8 N 4.5 0.0 0.3
15:16 9.0 7.8 92 1033.3 1.6 S 3.8 0.0 0.3
15:17 9.0 7.8 92 1033.3 1.6 NE 3.8 0.0 0.3
15:18 8.9 7.7 92 1033.3 3.1 W 3.8 0.0 0.3
15:19 8.9 7.7 92 1033.4 1.6 N 3.8 0.0 0.3
15:20 8.9 7.7 92 1033.2 3.8 NW 3.8 0.0 0.3
15:21 8.9 7.7 92 1033.4 3.1 NW 3.8 0.0 0.3
15:22 8.9 7.7 92 1033.4 3.8 N 3.8 0.0 0.3
15:23 8.9 7.7 92 1033.4 4.5 NW 4.5 0.0 0.3
15:24 8.9 7.7 92 1033.3 3.8 NW 4.5 0.0 0.3
15:25 8.9 7.7 92 1033.4 2.2 NW 4.5 0.0 0.3
15:26 8.9 7.7 92 1033.4 2.2 NW 4.5 0.0 0.3
15:27 8.9 7.7 92 1033.3 1.6 NW 4.5 0.0 0.3
15:28 8.9 7.7 92 1033.3 1.6 NW 4.5 0.0 0.3
15:29 8.9 7.7 92 1033.3 6.0 W 6.0 0.0 0.3
15:30 8.9 7.7 92 1033.5 6.0 NW 6.0 0.0 0.3
15:31 8.9 7.7 92 1033.4 3.1 NNW 6.0 0.0 0.3
15:32 8.9 7.7 92 1033.4 5.4 SW 6.0 0.0 0.3
15:33 8.9 7.7 92 1033.4 1.6 NW 6.0 0.0 0.3
15:34 8.9 7.7 92 1033.4 1.6 W 6.0 0.0 0.3
15:35 8.9 7.7 92 1033.4 5.4 NW 6.0 0.0 0.3
15:36 8.9 7.7 92 1033.3 5.4 NW 6.0 0.0 0.3
15:37 8.9 7.7 92 1033.4 2.2 N 6.0 0.0 0.3
15:38 8.9 7.7 92 1033.2 3.8 W 6.0 0.0 0.3
15:39 8.9 7.7 92 1033.3 3.1 NW 6.0 0.0 0.3
15:40 8.9 7.7 92 1033.5 1.6 NW 5.4 0.0 0.3
15:41 8.9 7.7 92 1033.3 2.2 NW 5.4 0.0 0.3
15:42 8.9 7.7 92 1033.3 3.8 W 5.4 0.0 0.3
15:43 8.9 7.7 92 1033.3 3.8 W 5.4 0.0 0.3
15:44 8.9 7.7 92 1033.3 0.7 SW 5.4 0.0 0.3
15:45 8.9 7.7 92 1033.3 3.1 N 5.4 0.0 0.3
15:46 8.9 7.7 92 1033.3 3.1 N 5.4 0.0 0.3
15:47 8.9 7.7 92 1033.4 3.8 NW 3.8 0.0 0.3
15:48 8.9 7.7 92 1033.2 2.2 NW 3.8 0.0 0.3
15:49 8.9 7.7 92 1033.3 1.6 NW 3.8 0.0 0.3
15:50 8.9 7.7 92 1033.3 2.2 N 3.8 0.0 0.3
15:51 8.9 7.7 92 1033.3 2.2 N 3.8 0.0 0.3
15:52 8.9 7.7 92 1033.4 5.4 NW 5.4 0.0 0.3
15:53 8.9 7.7 92 1033.4 3.8 W 5.4 0.0 0.3
15:54 8.9 7.7 92 1033.4 4.5 W 5.4 0.0 0.3
15:55 8.9 7.7 92 1033.4 3.8 NW 5.4 0.0 0.3
15:56 8.9 7.7 92 1033.4 3.1 NW 5.4 0.0 0.3
15:57 8.9 7.7 92 1033.4 3.1 NW 5.4 0.0 0.3
15:58 8.9 7.7 92 1033.3 4.5 NW 5.4 0.0 0.3
15:59 8.9 7.7 92 1033.4 6.9 W 6.9 0.0 0.3
16:00 8.9 7.7 92 1033.4 5.4 NW 6.9 0.0 0.3
16:01 8.9 7.7 92 1033.4 5.4 NW 6.9 0.0 0.3
16:02 8.9 7.7 92 1033.4 3.8 NW 6.9 0.0 0.3
16:03 8.8 7.6 92 1033.3 4.5 WNW 6.9 0.0 0.3
16:04 8.9 7.7 92 1033.4 3.8 NE 6.9 0.0 0.3
16:05 8.9 7.7 92 1033.4 5.4 NW 6.9 0.0 0.3
16:06 8.9 7.7 92 1033.4 4.5 S 6.9 0.0 0.3
16:07 8.9 7.7 92 1033.5 5.4 N 6.9 0.0 0.3
16:08 8.9 7.7 92 1033.5 4.5 WNW 6.9 0.0 0.3
16:09 8.9 7.7 92 1033.3 5.4 W 6.9 0.0 0.3
16:10 8.9 7.5 91 1033.4 5.4 NW 6.9 0.0 0.3
16:11 8.9 7.5 91 1033.4 6.0 NW 6.9 0.0 0.3
16:12 8.8 7.4 91 1033.4 3.8 NW 6.9 0.0 0.3
16:13 8.8 7.4 91 1033.5 3.8 NW 6.9 0.0 0.3
16:14 8.8 7.4 91 1033.3 3.8 WNW 6.9 0.0 0.3
16:15 8.8 7.4 91 1033.4 4.5 NW 6.9 0.0 0.3
16:16 8.8 7.4 91 1033.3 3.8 NW 6.9 0.0 0.3
16:17 8.8 7.4 91 1033.5 3.8 N 6.9 0.0 0.3
16:18 8.8 7.4 91 1033.5 3.8 N 6.9 0.0 0.3
16:19 8.8 7.4 91 1033.5 4.5 N 6.9 0.0 0.3
16:20 8.8 7.4 91 1033.5 3.8 E 6.0 0.0 0.3
16:21 8.8 7.4 91 1033.6 4.5 NW 6.0 0.0 0.3
16:22 8.8 7.4 91 1033.6 3.1 NE 6.0 0.0 0.3
16:23 8.8 7.4 91 1033.4 3.8 NE 6.0 0.0 0.3
16:24 8.8 7.4 91 1033.5 5.4 NW 5.4 0.0 0.3
16:25 8.8 7.4 91 1033.5 2.2 NW 5.4 0.0 0.3
16:26 8.8 7.4 91 1033.5 3.1 N 5.4 0.0 0.3
16:27 8.8 7.4 91 1033.4 5.4 NW 5.4 0.0 0.3
16:28 8.8 7.4 91 1033.4 5.4 NW 5.4 0.0 0.3
16:29 8.8 7.4 91 1033.4 3.8 NW 6.0 0.0 0.3
16:30 8.8 7.4 91 1033.3 3.8 NW 6.0 0.0 0.3
16:31 8.8 7.4 91 1033.5 5.4 N 6.0 0.0 0.3
16:32 8.8 7.4 91 1033.4 4.5 NW 6.0 0.0 0.3
16:33 8.8 7.4 91 1033.5 3.1 NW 6.0 0.0 0.3
16:34 8.8 7.4 91 1033.3 3.1 N 6.0 0.0 0.3
16:35 8.8 7.4 91 1033.4 3.1 NW 6.0 0.0 0.3
16:36 8.8 7.4 91 1033.4 6.0 N 6.0 0.0 0.3
16:37 8.8 7.4 91 1033.5 6.0 W 6.0 0.0 0.3
16:38 8.8 7.4 91 1033.4 4.5 N 6.0 0.0 0.3
16:39 8.8 7.4 91 1033.4 5.4 W 6.0 0.0 0.3
16:40 8.7 7.3 91 1033.6 4.5 N 6.0 0.0 0.3
16:41 8.8 7.4 91 1033.4 4.5 W 6.0 0.0 0.3
16:42 8.7 7.3 91 1033.5 6.0 NW 6.0 0.0 0.3
16:43 8.8 7.4 91 1033.3 3.8 E 6.0 0.0 0.3
16:44 8.8 7.4 91 1033.5 1.6 NW 6.0 0.0 0.3
16:46 8.8 7.4 91 1033.4 3.8 N 6.0 0.0 0.3
16:47 8.8 7.4 91 1033.5 4.5 WSW 6.0 0.0 0.3
16:48 8.7 7.3 91 1033.5 3.8 NW 6.0 0.0 0.3
16:49 8.7 7.3 91 1033.5 5.4 WNW 6.0 0.0 0.3
16:50 8.7 7.3 91 1033.5 5.4 NE 6.0 0.0 0.3
16:51 8.7 7.3 91 1033.5 3.1 N 6.0 0.0 0.3
16:52 8.7 7.3 91 1033.4 6.0 WNW 6.0 0.0 0.3
16:53 8.7 7.3 91 1033.6 2.2 NE 6.0 0.0 0.3
16:54 8.7 7.3 91 1033.6 2.2 NE 6.0 0.0 0.3
16:55 8.7 7.3 91 1033.5 4.5 N 6.0 0.0 0.3
16:56 8.7 7.3 91 1033.4 6.0 N 6.0 0.0 0.3
16:57 8.7 7.3 91 1033.3 6.9 N 6.9 0.0 0.3
16:58 8.7 7.3 91 1033.5 5.4 NW 6.9 0.0 0.3
16:59 8.7 7.3 91 1033.4 4.5 N 6.9 0.0 0.3
17:00 8.7 7.2 90 1033.4 6.0 NW 6.9 0.0 0.3
17:01 8.7 7.2 90 1033.5 6.0 NW 6.9 0.0 0.3
17:02 8.7 7.2 90 1033.3 6.0 NW 6.9 0.0 0.3
17:03 8.7 7.2 90 1033.4 6.0 NW 6.9 0.0 0.3
17:04 8.7 7.2 90 1033.4 6.0 NW 6.9 0.0 0.3
17:05 8.6 7.1 90 1033.4 5.4 N 6.9 0.0 0.3
17:06 8.6 7.1 90 1033.4 6.9 N 6.9 0.0 0.3
17:07 8.6 7.1 90 1033.5 3.8 N 6.9 0.0 0.3
17:09 8.6 7.1 90 1033.4 6.0 WSW 6.9 0.0 0.3
17:10 8.6 6.9 89 1033.5 5.4 N 6.9 0.0 0.3
17:11 8.6 6.9 89 1033.5 3.8 W 6.9 0.0 0.3
17:12 8.6 6.9 89 1033.4 5.4 NW 6.9 0.0 0.3
17:13 8.6 6.9 89 1033.4 5.4 S 6.9 0.0 0.3
17:14 8.6 6.9 89 1033.6 3.1 W 6.9 0.0 0.3
17:15 8.6 6.9 89 1033.7 4.5 N 6.9 0.0 0.3
17:16 8.5 6.8 89 1033.6 3.1 N 6.9 0.0 0.3
17:17 8.5 6.8 89 1033.4 3.8 NW 6.0 0.0 0.3
17:18 8.5 6.8 89 1033.5 4.5 N 6.0 0.0 0.3
17:19 8.5 6.6 88 1033.4 3.1 N 6.0 0.0 0.3
17:20 8.5 6.6 88 1033.6 3.8 NW 5.4 0.0 0.3
17:21 8.5 6.6 88 1033.5 3.8 NW 5.4 0.0 0.3
17:22 8.6 6.7 88 1033.6 2.2 N 5.4 0.0 0.3
17:23 8.5 6.6 88 1033.6 3.1 N 5.4 0.0 0.3
17:24 8.5 6.6 88 1033.5 3.8 N 4.5 0.0 0.3
17:26 8.5 6.6 88 1033.7 4.5 N 4.5 0.0 0.3
17:27 8.5 6.6 88 1033.6 3.8 NW 4.5 0.0 0.3
17:28 8.5 6.6 88 1033.6 3.8 N 4.5 0.0 0.3
17:29 8.5 6.6 88 1033.7 3.8 W 4.5 0.0 0.3
17:30 8.5 6.5 87 1033.6 3.8 N 4.5 0.0 0.3
17:31 8.5 6.5 87 1033.7 3.1 NW 4.5 0.0 0.3
17:32 8.5 6.5 87 1033.6 3.1 W 4.5 0.0 0.3
17:33 8.4 6.4 87 1033.7 4.5 NW 4.5 0.0 0.3
17:34 8.4 6.4 87 1033.7 4.5 NW 4.5 0.0 0.3
17:35 8.4 6.4 87 1033.7 1.6 N 4.5 0.0 0.3
17:36 8.4 6.4 87 1033.7 2.2 NW 4.5 0.0 0.3
17:37 8.4 6.4 87 1033.7 3.8 NW 4.5 0.0 0.3
17:38 8.4 6.4 87 1033.8 4.5 N 4.5 0.0 0.3
17:39 8.4 6.4 87 1033.6 1.6 N 4.5 0.0 0.3
17:40 8.4 6.4 87 1033.7 3.1 NW 4.5 0.0 0.3
17:41 8.4 6.4 87 1033.6 2.2 N 4.5 0.0 0.3
17:42 8.4 6.4 87 1033.6 5.4 W 5.4 0.0 0.3
17:43 8.3 6.3 87 1033.6 5.4 N 5.4 0.0 0.3
17:45 8.3 6.1 86 1033.7 3.1 SW 5.4 0.0 0.3
17:46 8.3 6.1 86 1033.7 3.1 N 5.4 0.0 0.3
17:47 8.3 6.1 86 1033.5 3.8 NW 5.4 0.0 0.3
17:48 8.3 6.1 86 1033.6 3.8 W 5.4 0.0 0.3
17:49 8.3 6.1 86 1033.6 3.1 NW 6.0 0.0 0.3
17:50 8.3 6.1 86 1033.7 3.1 N 6.0 0.0 0.3
17:51 8.3 6.1 86 1033.5 3.8 NW 6.0 0.0 0.3
17:52 8.3 6.1 86 1033.7 3.8 N 6.0 0.0 0.3
17:53 8.3 6.1 86 1033.7 3.8 N 6.0 0.0 0.3
17:54 8.3 6.1 86 1033.5 3.1 NW 6.0 0.0 0.3
17:55 8.3 6.1 86 1033.6 3.8 NW 6.0 0.0 0.3
17:56 8.3 5.9 85 1033.6 4.5 N 6.0 0.0 0.3
17:57 8.3 5.9 85 1033.7 4.5 N 6.0 0.0 0.3
17:58 8.3 5.9 85 1033.6 6.0 N 6.0 0.0 0.3
17:59 8.3 5.9 85 1033.6 6.9 N 6.9 0.0 0.3
18:00 8.3 5.9 85 1033.5 2.2 NW 6.9 0.0 0.3
18:01 8.3 5.9 85 1033.7 2.2 NW 6.9 0.0 0.3
18:02 8.3 5.9 85 1033.6 2.2 NW 6.9 0.0 0.3
18:03 8.3 5.9 85 1033.6 2.2 NW 6.9 0.0 0.3
18:05 8.2 5.8 85 1033.7 3.8 NE 6.9 0.0 0.3
18:06 8.2 5.8 85 1033.8 1.6 W 6.9 0.0 0.3
18:07 8.3 5.9 85 1033.7 2.2 N 6.9 0.0 0.3
18:08 8.3 5.8 84 1033.7 2.2 NW 6.9 0.0 0.3
18:09 8.2 5.7 84 1033.8 2.2 NW 3.8 0.0 0.3
18:10 8.3 5.9 85 1033.8 1.6 N 3.8 0.0 0.3
18:11 8.2 5.7 84 1033.7 2.2 NW 3.8 0.0 0.3
18:12 8.3 5.8 84 1033.7 1.6 N 3.8 0.0 0.3
18:13 8.3 5.8 84 1033.7 1.6 N 3.8 0.0 0.3
18:14 8.3 5.8 84 1033.7 1.6 N 3.8 0.0 0.3
18:15 8.3 5.8 84 1033.8 1.6 W 3.8 0.0 0.3
18:16 8.2 5.7 84 1033.8 0.0 N 3.1 0.0 0.3
18:17 8.2 5.7 84 1033.8 0.0 N 3.1 0.0 0.3
18:18 8.2 5.7 84 1033.7 0.0 NW 3.1 0.0 0.3
18:19 8.2 5.7 84 1033.8 0.0 NW 2.2 0.0 0.3
18:20 8.2 5.7 84 1033.7 0.0 NW 2.2 0.0 0.3
18:21 8.2 5.7 84 1033.8 0.7 NW 2.2 0.0 0.3
18:22 8.2 5.7 84 1033.8 6.0 NW 6.0 0.0 0.3
18:24 8.2 5.8 85 1033.8 2.2 NE 6.0 0.0 0.3
18:25 8.2 5.8 85 1033.9 2.2 NW 6.0 0.0 0.3
18:26 8.2 5.8 85 1033.6 2.2 WNW 6.0 0.0 0.3
18:27 8.2 5.8 85 1033.8 3.1 N 6.0 0.0 0.3
18:28 8.2 5.8 85 1033.8 2.2 NE 6.0 0.0 0.3
18:29 8.3 5.9 85 1033.8 3.1 W 6.0 0.0 0.3
18:30 8.3 5.9 85 1033.7 3.1 SW 6.0 0.0 0.3
18:31 8.3 5.9 85 1033.7 2.2 NW 6.0 0.0 0.3
18:32 8.3 5.9 85 1033.7 1.6 NW 3.1 0.0 0.3
18:33 8.3 5.9 85 1033.6 3.8 NW 3.8 0.0 0.3
18:34 8.3 5.9 85 1033.6 3.8 NW 3.8 0.0 0.3
18:35 8.3 5.9 85 1033.8 3.1 NW 3.8 0.0 0.3
18:36 8.4 6.0 85 1033.7 3.1 W 6.0 0.0 0.3
18:37 8.4 6.0 85 1033.9 4.5 N 6.0 0.0 0.3
18:38 8.4 6.0 85 1033.7 4.5 NW 6.0 0.0 0.3
18:39 8.4 6.0 85 1033.8 5.4 NW 6.0 0.0 0.3
18:40 8.3 6.1 86 1033.7 5.4 NW 6.0 0.0 0.3
18:41 8.4 6.0 85 1033.8 5.4 W 6.0 0.0 0.3
18:42 8.4 6.0 85 1033.6 3.8 NW 6.0 0.0 0.3
18:43 8.4 6.0 85 1033.6 5.4 W 6.0 0.0 0.3
18:44 8.5 6.1 85 1033.8 5.4 NW 6.0 0.0 0.3
18:46 8.5 6.1 85 1033.7 5.4 N 6.0 0.0 0.3
18:47 8.5 6.1 85 1033.6 5.4 W 6.0 0.0 0.3
18:48 8.5 6.1 85 1033.7 6.9 N 6.9 0.0 0.3
18:49 8.5 6.1 85 1033.7 6.9 WNW 6.9 0.0 0.3
18:50 8.5 6.1 85 1033.6 6.9 N 6.9 0.0 0.3
18:51 8.5 6.1 85 1033.7 3.8 N 6.9 0.0 0.3
18:52 8.5 6.1 85 1033.6 3.1 N 6.9 0.0 0.3
18:53 8.5 6.0 84 1033.6 4.5 SW 6.9 0.0 0.3
18:54 8.5 6.0 84 1033.6 4.5 SW 6.9 0.0 0.3
18:55 8.5 6.0 84 1033.8 3.1 N 6.9 0.0 0.3
18:56 8.5 6.0 84 1033.8 3.8 N 6.9 0.0 0.3
18:57 8.5 6.0 84 1033.8 3.1 N 6.9 0.0 0.3
18:58 8.5 6.0 84 1033.8 4.5 N 6.9 0.0 0.3
18:59 8.5 6.0 84 1033.7 3.1 NW 6.9 0.0 0.3
19:00 8.5 6.0 84 1033.8 3.8 NE 6.9 0.0 0.3
19:01 8.5 6.0 84 1033.8 3.8 NE 4.5 0.0 0.3
19:02 8.5 6.0 84 1033.8 1.6 NW 4.5 0.0 0.3
19:03 8.5 5.8 83 1033.8 3.1 NW 4.5 0.0 0.3
19:04 8.4 5.7 83 1033.5 3.1 WNW 4.5 0.0 0.3
19:05 8.4 5.7 83 1033.8 2.2 NW 4.5 0.0 0.3
19:06 8.4 5.7 83 1033.8 1.6 NW 4.5 0.0 0.3
19:07 8.4 5.7 83 1033.9 0.7 N 4.5 0.0 0.3
19:08 8.4 5.7 83 1033.8 0.0 N 3.8 0.0 0.3
19:09 8.4 5.7 83 1033.7 1.6 N 3.8 0.0 0.3
19:10 8.4 5.7 83 1033.9 2.2 NW 3.8 0.0 0.3
19:11 8.3 5.6 83 1033.8 1.6 N 3.1 0.0 0.3
19:12 8.4 5.7 83 1033.8 1.6 NW 3.1 0.0 0.3
19:13 8.3 5.6 83 1033.7 0.7 NW 3.1 0.0 0.3
19:14 8.3 5.6 83 1033.7 0.0 NW 3.1 0.0 0.3
19:15 8.3 5.6 83 1033.8 0.0 N 2.2 0.0 0.3
19:16 8.3 5.6 83 1033.7 0.0 N 2.2 0.0 0.3
19:17 8.3 5.6 83 1033.8 0.0 N 2.2 0.0 0.3
19:18 8.3 5.6 83 1033.7 0.0 N 2.2 0.0 0.3
19:19 8.3 5.6 83 1033.8 0.0 N 2.2 0.0 0.3
19:21 8.2 5.5 83 1033.8 1.6 N 1.6 0.0 0.3
19:22 8.2 5.5 83 1033.8 0.0 NW 1.6 0.0 0.3
19:23 8.2 5.5 83 1033.8 0.0 N 1.6 0.0 0.3
19:24 8.2 5.5 83 1033.8 0.0 N 1.6 0.0 0.3
19:25 8.2 5.5 83 1033.8 0.0 N 1.6 0.0 0.3
19:26 8.1 5.4 83 1033.7 0.0 N 1.6 0.0 0.3
19:27 8.2 5.5 83 1033.8 0.0 N 1.6 0.0 0.3
19:28 8.1 5.4 83 1033.8 0.0 N 1.6 0.0 0.3
19:29 8.1 5.4 83 1033.8 0.0 N 1.6 0.0 0.3
19:30 8.1 5.4 83 1033.8 0.0 N 1.6 0.0 0.3
19:31 8.1 5.4 83 1033.8 0.0 N 1.6 0.0 0.3
19:32 8.1 5.4 83 1033.9 0.0 N 0.0 0.0 0.3
19:33 8.1 5.4 83 1033.8 0.7 NW 0.7 0.0 0.3
19:34 8.1 5.4 83 1033.9 0.0 NW 0.7 0.0 0.3
19:35 8.0 5.3 83 1033.9 0.0 N 0.7 0.0 0.3
19:36 8.0 5.3 83 1033.8 0.0 N 0.7 0.0 0.3
19:37 8.0 5.3 83 1033.8 0.0 N 0.7 0.0 0.3
19:38 8.0 5.3 83 1033.7 0.0 NW 0.7 0.0 0.3
19:39 8.0 5.3 83 1033.8 0.0 NW 0.7 0.0 0.3
19:40 8.0 5.3 83 1033.8 0.0 NW 0.7 0.0 0.3
19:41 8.0 5.3 83 1033.7 0.0 N 0.7 0.0 0.3
19:42 8.0 5.3 83 1033.7 0.0 N 0.7 0.0 0.3
19:44 7.9 5.2 83 1033.7 0.0 NW 0.7 0.0 0.3
19:45 7.9 5.2 83 1033.8 0.0 NW 0.0 0.0 0.3
19:46 7.9 5.0 82 1033.7 0.0 NW 0.0 0.0 0.3
19:47 7.9 5.2 83 1033.6 0.0 NW 0.0 0.0 0.3
19:48 7.9 5.2 83 1033.8 0.0 W 0.0 0.0 0.3
19:49 7.9 5.0 82 1033.9 0.0 W 0.0 0.0 0.3
19:50 7.9 5.2 83 1033.8 0.0 WNW 0.0 0.0 0.3
19:51 7.9 5.2 83 1033.8 1.6 W 1.6 0.0 0.3
19:52 7.9 5.0 82 1033.8 1.6 NW 1.6 0.0 0.3
19:53 7.9 5.0 82 1033.8 1.6 W 1.6 0.0 0.3
19:54 7.9 5.0 82 1033.8 1.6 NW 3.8 0.0 0.3
19:55 7.9 5.2 83 1033.7 2.2 W 3.8 0.0 0.3
19:56 7.9 5.0 82 1033.9 1.6 NW 3.8 0.0 0.3
19:57 7.9 5.2 83 1033.8 2.2 SW 3.8 0.0 0.3
19:58 7.9 5.2 83 1033.9 3.1 NW 3.8 0.0 0.3
19:59 7.9 5.2 83 1033.8 1.6 W 3.8 0.0 0.3
20:00 7.9 5.2 83 1033.8 0.0 W 3.8 0.0 0.3
20:01 7.9 5.2 83 1033.7 0.0 W 3.8 0.0 0.3
20:02 7.9 5.2 83 1033.6 0.0 W 3.8 0.0 0.3
20:04 7.9 5.2 83 1033.7 0.0 W 3.1 0.0 0.3
20:05 7.9 5.2 83 1033.8 3.8 NW 3.8 0.0 0.3
20:06 8.0 5.3 83 1033.8 3.8 SW 3.8 0.0 0.3
20:07 8.0 5.3 83 1033.7 5.4 SW 5.4 0.0 0.3
20:08 8.0 5.5 84 1033.8 3.8 W 5.4 0.0 0.3
20:09 8.0 5.5 84 1033.8 3.8 WNW 5.4 0.0 0.3
20:10 8.1 5.6 84 1033.8 3.8 SE 5.4 0.0 0.3
20:11 8.1 5.6 84 1033.8 6.9 W 6.9 0.0 0.3
20:12 8.1 5.6 84 1033.8 3.8 NW 6.9 0.0 0.3
20:13 8.1 5.7 85 1033.9 3.8 W 6.9 0.0 0.3
20:14 8.2 5.8 85 1033.6 4.5 WSW 6.9 0.0 0.3
20:15 8.2 5.8 85 1033.9 4.5 W 6.9 0.0 0.3
20:16 8.2 5.8 85 1033.7 3.8 NW 6.9 0.0 0.3
20:17 8.3 5.9 85 1033.8 4.5 W 6.9 0.0 0.3
20:18 8.3 6.1 86 1033.8 3.1 W 6.9 0.0 0.3
20:19 8.3 6.1 86 1033.8 3.8 NW 6.9 0.0 0.3
20:20 8.4 6.2 86 1033.8 3.1 W 6.9 0.0 0.3
20:21 8.4 6.2 86 1033.7 3.8 SW 6.9 0.0 0.3
20:22 8.4 6.2 86 1033.7 3.8 W 6.0 0.0 0.3
20:23 8.4 6.2 86 1033.8 4.5 SW 6.0 0.0 0.3
20:24 8.5 6.5 87 1033.6 3.8 SW 6.0 0.0 0.3
20:26 8.5 6.5 87 1033.7 3.8 W 6.0 0.0 0.3
20:27 8.5 6.5 87 1033.8 3.8 WNW 6.0 0.0 0.3
20:28 8.5 6.5 87 1033.6 4.5 W 6.0 0.0 0.3
20:29 8.5 6.5 87 1033.7 3.8 WNW 6.0 0.0 0.3
20:30 8.5 6.5 87 1033.8 4.5 SW 6.0 0.0 0.3
20:31 8.5 6.5 87 1033.8 4.5 W 6.0 0.0 0.3
20:32 8.5 6.5 87 1033.8 3.1 W 6.0 0.0 0.3
20:33 8.5 6.5 87 1033.7 3.8 W 6.0 0.0 0.3
20:34 8.5 6.5 87 1033.6 3.8 W 6.0 0.0 0.3
20:35 8.5 6.5 87 1033.7 5.4 W 6.0 0.0 0.3
20:36 8.6 6.6 87 1033.7 3.8 W 6.0 0.0 0.3
20:37 8.5 6.5 87 1033.7 3.8 W 6.0 0.0 0.3
20:38 8.5 6.6 88 1033.8 3.8 SW 6.0 0.0 0.3
20:39 8.6 6.7 88 1033.7 3.1 W 5.4 0.0 0.3
20:40 8.5 6.6 88 1033.6 3.8 W 5.4 0.0 0.3
20:41 8.5 6.6 88 1033.6 3.8 W 5.4 0.0 0.3
20:42 8.5 6.6 88 1033.6 3.1 W 5.4 0.0 0.3
20:43 8.5 6.6 88 1033.7 3.1 W 5.4 0.0 0.3
20:44 8.6 6.7 88 1033.6 3.1 W 5.4 0.0 0.3
20:45 8.6 6.7 88 1033.7 3.8 W 3.8 0.0 0.3
20:46 8.5 6.6 88 1033.7 3.1 W 3.8 0.0 0.3
20:48 8.6 6.7 88 1033.7 2.2 W 3.8 0.0 0.3
20:49 8.5 6.6 88 1033.6 3.1 W 3.8 0.0 0.3
20:50 8.5 6.6 88 1033.8 3.8 SW 3.8 0.0 0.3
20:51 8.5 6.6 88 1033.6 4.5 SW 4.5 0.0 0.3
20:52 8.5 6.6 88 1033.5 3.8 SW 4.5 0.0 0.3
20:53 8.5 6.6 88 1033.6 3.1 W 4.5 0.0 0.3
20:54 8.5 6.6 88 1033.6 3.8 SW 4.5 0.0 0.3
20:55 8.5 6.6 88 1033.6 3.8 SW 4.5 0.0 0.3
20:56 8.5 6.6 88 1033.6 3.8 SW 4.5 0.0 0.3
20:57 8.5 6.8 89 1033.6 3.8 W 4.5 0.0 0.3
20:58 8.5 6.6 88 1033.6 3.8 W 4.5 0.0 0.3
20:59 8.5 6.8 89 1033.6 3.1 W 4.5 0.0 0.3
21:00 8.5 6.8 89 1033.7 3.8 W 4.5 0.0 0.3
21:01 8.5 6.8 89 1033.7 3.8 W 4.5 0.0 0.3
21:02 8.5 6.8 89 1033.6 3.8 W 3.8 0.0 0.3
21:03 8.5 6.8 89 1033.6 3.8 W 3.8 0.0 0.3
21:04 8.5 6.8 89 1033.7 3.1 W 3.8 0.0 0.3
21:05 8.5 6.8 89 1033.7 3.1 W 3.8 0.0 0.3
21:06 8.5 6.8 89 1033.7 3.1 W 3.8 0.0 0.3
21:07 8.5 6.8 89 1033.6 2.2 SW 3.8 0.0 0.3
21:08 8.4 6.7 89 1033.7 2.2 W 3.8 0.0 0.3
21:09 8.4 6.7 89 1033.7 3.1 W 3.8 0.0 0.3
21:10 8.4 6.7 89 1033.6 3.1 WSW 3.8 0.0 0.3
21:11 8.4 6.7 89 1033.8 4.5 W 4.5 0.0 0.3
21:12 8.4 6.7 89 1033.8 3.8 W 4.5 0.0 0.3
21:13 8.4 6.7 89 1033.7 2.2 W 4.5 0.0 0.3
21:14 8.4 6.7 89 1033.7 3.8 W 4.5 0.0 0.3
21:15 8.4 6.7 89 1033.7 3.8 W 4.5 0.0 0.3
21:16 8.4 6.7 89 1033.7 4.5 W 5.4 0.0 0.3
21:17 8.4 6.7 89 1033.7 6.9 SW 6.9 0.0 0.3
21:18 8.4 6.7 89 1033.8 6.0 SW 6.9 0.0 0.3
21:19 8.4 6.7 89 1033.9 5.4 WSW 6.9 0.0 0.3
21:20 8.4 6.7 89 1033.8 3.8 W 6.9 0.0 0.3
21:21 8.4 6.7 89 1033.7 5.4 NW 6.9 0.0 0.3
21:22 8.4 6.7 89 1033.9 4.5 NW 6.9 0.0 0.3
21:23 8.4 6.7 89 1033.8 5.4 W 6.9 0.0 0.3
21:25 8.3 6.6 89 1033.7 6.0 W 6.9 0.0 0.3
21:26 8.3 6.6 89 1033.7 5.4 W 6.9 0.0 0.3
21:27 8.3 6.6 89 1033.9 4.5 W 6.9 0.0 0.3
21:28 8.3 6.6 89 1033.8 4.5 SW 6.9 0.0 0.3
21:29 8.3 6.6 89 1033.9 6.0 NW 6.9 0.0 0.3
21:30 8.3 6.6 89 1033.8 3.8 W 6.9 0.0 0.3
21:31 8.3 6.6 89 1033.8 3.8 W 6.9 0.0 0.3
21:32 8.3 6.6 89 1033.8 3.8 W 6.9 0.0 0.3
21:33 8.3 6.6 89 1033.9 4.5 NW 6.9 0.0 0.3
21:34 8.3 6.6 89 1033.8 4.5 SW 6.9 0.0 0.3
21:35 8.3 6.6 89 1033.8 4.5 SW 6.0 0.0 0.3
21:36 8.3 6.6 89 1033.8 4.5 NW 6.0 0.0 0.3
21:37 8.3 6.6 89 1033.7 4.5 WSW 6.0 0.0 0.3
21:38 8.3 6.6 89 1033.7 4.5 SW 6.0 0.0 0.3
21:39 8.3 6.6 89 1033.8 6.0 NW 6.0 0.0 0.3
21:40 8.3 6.8 90 1033.6 6.0 SW 6.0 0.0 0.3
21:41 8.3 6.8 90 1033.5 6.0 W 6.0 0.0 0.3
21:42 8.2 6.7 90 1033.7 6.0 SW 9.2 0.0 0.3
21:43 8.2 6.7 90 1033.7 4.5 W 9.2 0.0 0.3
21:44 8.2 6.7 90 1033.8 5.4 N 9.2 0.0 0.3
21:45 8.2 6.7 90 1033.8 4.5 SW 9.2 0.0 0.3
21:47 8.2 6.7 90 1033.8 5.4 W 9.2 0.0 0.3
21:48 8.2 6.7 90 1033.7 3.8 W 9.2 0.0 0.3
21:49 8.2 6.7 90 1033.8 4.5 WSW 9.2 0.0 0.3
21:50 8.2 6.7 90 1033.7 4.5 W 9.2 0.0 0.3
21:51 8.2 6.7 90 1033.9 5.4 SW 9.2 0.0 0.3
21:52 8.2 6.7 90 1033.8 6.0 SW 6.0 0.0 0.3
21:53 8.2 6.7 90 1033.8 5.4 SW 6.0 0.0 0.3
21:54 8.2 6.7 90 1033.7 5.4 SW 6.0 0.0 0.3
21:55 8.2 6.7 90 1033.7 5.4 SW 6.0 0.0 0.3
21:56 8.2 6.7 90 1033.8 3.1 W 6.0 0.0 0.3
21:57 8.2 6.7 90 1033.8 3.1 W 6.0 0.0 0.3
21:58 8.2 6.8 91 1033.8 4.5 NE 6.0 0.0 0.3
21:59 8.2 6.8 91 1033.9 3.8 W 6.0 0.0 0.3
22:00 8.2 6.8 91 1033.9 4.5 SW 6.0 0.0 0.3
22:01 8.2 6.8 91 1033.9 4.5 SW 6.0 0.0 0.3
22:02 8.2 6.8 91 1033.8 4.5 SW 6.0 0.0 0.3
22:03 8.2 6.8 91 1033.8 4.5 WSW 5.4 0.0 0.3
22:04 8.2 6.8 91 1034.0 4.5 W 5.4 0.0 0.3
22:05 8.2 6.8 91 1033.9 4.5 W 5.4 0.0 0.3
22:06 8.2 6.8 91 1033.8 4.5 SW 5.4 0.0 0.3
22:07 8.2 6.8 91 1033.8 3.1 SW 5.4 0.0 0.3
22:08 8.1 6.7 91 1033.9 3.1 W 5.4 0.0 0.3
22:10 8.2 6.8 91 1033.8 3.1 SW 5.4 0.0 0.3
22:11 8.2 6.8 91 1034.0 2.2 SW 5.4 0.0 0.3
22:12 8.2 6.8 91 1033.8 3.8 WNW 4.5 0.0 0.3
22:13 8.1 6.7 91 1033.7 4.5 SW 4.5 0.0 0.3
22:14 8.2 6.8 91 1033.7 3.8 SW 4.5 0.0 0.3
22:15 8.1 6.7 91 1033.8 4.5 W 4.5 0.0 0.3
22:16 8.1 6.7 91 1033.8 6.0 SW 6.0 0.0 0.3
22:17 8.2 6.8 91 1033.8 4.5 SW 6.0 0.0 0.3
22:18 8.2 6.8 91 1033.7 4.5 NW 6.0 0.0 0.3
22:19 8.2 6.8 91 1033.8 4.5 W 6.0 0.0 0.3
22:20 8.1 6.7 91 1033.7 3.8 SW 6.0 0.0 0.3
22:21 8.2 6.8 91 1033.8 4.5 W 6.0 0.0 0.3
22:22 8.2 7.0 92 1033.7 5.4 W 6.0 0.0 0.3
22:23 8.2 7.0 92 1033.8 4.5 SW 6.0 0.0 0.3
22:24 8.2 6.8 91 1033.8 4.5 W 6.0 0.0 0.3
22:25 8.2 7.0 92 1033.7 4.5 S 6.0 0.0 0.3
22:26 8.2 7.0 92 1033.7 3.8 SW 6.0 0.0 0.3
22:27 8.2 7.0 92 1033.8 4.5 NW 5.4 0.0 0.3
22:28 8.2 7.0 92 1033.6 5.4 NW 5.4 0.0 0.3
22:29 8.2 7.0 92 1033.6 5.4 SW 5.4 0.0 0.3
22:30 8.2 7.0 92 1033.8 6.9 W 6.9 0.0 0.3
22:31 8.2 7.0 92 1033.8 5.4 W 6.9 0.0 0.3
22:32 8.2 7.0 92 1033.7 5.4 SW 6.9 0.0 0.3
22:34 8.3 7.1 92 1033.6 5.4 W 6.9 0.0 0.3
22:35 8.3 7.1 92 1033.6 4.5 W 6.9 0.0 0.3
22:36 8.3 7.1 92 1033.8 6.0 W 6.9 0.0 0.3
22:37 8.3 7.1 92 1033.7 5.4 W 6.9 0.0 0.3
22:38 8.3 7.1 92 1033.8 4.5 W 6.9 0.0 0.3
22:39 8.3 7.1 92 1033.5 6.0 W 6.9 0.0 0.3
22:40 8.3 7.1 92 1033.7 5.4 W 6.0 0.0 0.3
22:41 8.3 7.1 92 1033.6 3.8 SW 6.0 0.0 0.3
22:42 8.3 7.1 92 1033.7 5.4 W 6.0 0.0 0.4
22:43 8.3 7.1 92 1033.7 5.4 SW 6.0 0.8 0.4
22:44 8.3 7.1 92 1033.8 5.4 SW 6.0 0.8 0.4
22:45 8.3 7.1 92 1033.6 4.5 N 6.0 0.8 0.4
22:46 8.3 7.2 93 1033.7 3.8 NNW 6.0 0.8 0.4
22:47 8.3 7.2 93 1033.8 4.5 W 6.0 0.8 0.4
22:48 8.4 7.3 93 1033.7 3.8 SW 6.0 0.0 0.4
22:49 8.4 7.3 93 1033.7 3.8 SW 6.0 0.0 0.4
22:50 8.4 7.3 93 1033.7 5.4 WSW 6.0 0.0 0.4
22:51 8.4 7.3 93 1033.6 3.8 W 5.4 0.0 0.4
22:52 8.4 7.3 93 1033.8 3.8 SW 5.4 0.0 0.4
22:53 8.4 7.3 93 1033.7 3.8 W 5.4 0.0 0.4
22:54 8.4 7.3 93 1033.7 3.1 W 5.4 0.0 0.4
22:55 8.4 7.3 93 1033.7 6.0 WSW 6.0 0.0 0.4
22:57 8.4 7.3 93 1033.6 5.4 SW 6.0 0.0 0.4
22:58 8.4 7.3 93 1033.6 6.0 SW 6.0 0.0 0.4
22:59 8.4 7.3 93 1033.4 6.9 NE 6.9 0.0 0.4
23:00 8.4 7.3 93 1033.7 6.9 NE 6.9 0.0 0.4
23:01 8.4 7.3 93 1033.5 6.9 NE 6.9 0.0 0.4
23:02 8.4 7.3 93 1033.5 6.9 NE 6.9 0.0 0.4
23:03 8.4 7.3 93 1033.6 6.9 NE 6.9 0.0 0.4
23:04 8.4 7.3 93 1033.6 6.9 NE 6.9 0.0 0.4
23:05 8.4 7.3 93 1033.7 6.9 NE 6.9 0.0 0.4
23:06 8.5 7.4 93 1033.4 8.3 W 8.3 0.0 0.4
23:07 8.5 7.4 93 1033.6 6.9 N 8.3 0.0 0.4
23:08 8.5 7.4 93 1033.6 6.0 NW 8.3 0.0 0.4
23:09 8.5 7.4 93 1033.5 8.3 W 8.3 0.0 0.4
23:10 8.5 7.4 93 1033.6 8.3 NW 8.3 0.0 0.4
23:12 8.5 7.4 93 1033.6 6.9 W 8.3 0.0 0.4
23:13 8.5 7.4 93 1033.6 9.8 SW 9.8 0.0 0.4
23:14 8.5 7.4 93 1033.5 9.2 NW 9.8 0.0 0.4
23:15 8.5 7.4 93 1033.6 6.9 SW 10.7 0.0 0.4
23:16 8.5 7.6 94 1033.7 10.7 SW 10.7 0.0 0.4
23:17 8.5 7.6 94 1033.7 10.7 SW 10.7 0.0 0.4
23:18 8.5 7.6 94 1033.5 6.9 W 10.7 0.0 0.4
23:19 8.5 7.6 94 1033.5 6.0 WSW 10.7 0.0 0.4
23:20 8.4 7.5 94 1033.6 6.9 SW 10.7 0.0 0.4
23:21 8.4 7.5 94 1033.5 6.0 NW 10.7 0.0 0.4
23:22 8.4 7.5 94 1033.4 6.9 SW 10.7 0.0 0.4
23:23 8.4 7.5 94 1033.4 5.4 NW 10.7 0.8 0.4
23:24 8.4 7.5 94 1033.4 6.0 NW 10.7 0.8 0.4
23:25 8.3 7.4 94 1033.4 6.9 NW 10.7 0.8 0.4
23:26 8.3 7.4 94 1033.3 4.5 W 10.7 0.8 0.4
23:27 8.3 7.4 94 1033.3 4.5 WSW 7.6 0.8 0.4
23:28 8.2 7.3 94 1033.3 3.1 SW 6.9 0.0 0.4
23:29 8.2 7.3 94 1033.1 5.4 W 6.9 0.0 0.4
23:30 8.2 7.3 94 1033.3 5.4 W 6.9 0.0 0.4
23:31 8.2 7.3 94 1033.3 5.4 NW 6.9 0.0 0.4
23:33 8.1 7.2 94 1033.2 3.8 NW 6.9 0.0 0.4
23:34 8.1 7.2 94 1033.0 5.4 NW 6.9 0.0 0.4
23:35 8.1 7.2 94 1033.1 4.5 SW 6.0 0.0 0.4
23:36 8.1 7.2 94 1033.0 3.8 WSW 6.0 0.0 0.4
23:37 8.1 7.2 94 1033.2 3.8 SW 6.0 0.0 0.4
23:38 8.0 7.1 94 1033.1 4.5 SW 6.0 0.0 0.4
23:39 8.0 7.1 94 1033.0 3.1 SW 6.0 0.0 0.4
23:40 8.0 7.1 94 1033.0 3.8 SW 6.0 0.0 0.4
23:41 8.0 7.1 94 1033.0 3.1 SW 6.0 0.0 0.4
23:42 8.0 7.1 94 1033.0 3.1 WSW 6.0 0.0 0.4
23:43 8.0 7.1 94 1032.9 3.1 SW 5.4 0.0 0.4
23:44 7.9 7.0 94 1032.8 3.1 W 5.4 0.0 0.4
23:45 7.9 7.0 94 1032.9 3.1 W 4.5 0.0 0.4
23:46 7.9 7.0 94 1032.9 3.1 SW 4.5 0.0 0.4
23:47 7.9 7.0 94 1032.9 3.8 SW 4.5 0.0 0.4
23:48 7.9 7.0 94 1033.0 3.8 SW 4.5 0.0 0.4
23:49 7.9 7.0 94 1032.9 4.5 SW 4.5 0.0 0.4
23:50 7.9 7.0 94 1033.0 3.8 W 4.5 0.0 0.4
23:51 7.8 6.9 94 1033.0 3.8 W 4.5 0.0 0.4
23:52 7.8 6.9 94 1032.8 3.1 W 4.5 0.0 0.4
23:53 7.8 6.9 94 1032.9 3.1 SW 4.5 0.0 0.4
23:54 7.8 6.9 94 1032.8 3.8 SW 4.5 0.0 0.4
23:55 7.8 6.9 94 1032.7 3.8 W 4.5 0.0 0.4
23:57 7.7 6.8 94 1032.8 3.1 SW 4.5 0.0 0.4
23:58 7.7 6.8 94 1032.7 2.2 SW 4.5 0.0 0.4
23:59 7.7 6.8 94 1032.7 2.2 SW 4.5 0.0 0.4

UK - WEATHER STATION TOPSITES - UK World Weather Websites

This is a private weather station, never base important decisions or events on data from this weather station. Although every effort has been made to make the data as accurate as possible it does not meet MetOffice standards. It is proved as a guide of local weather conditions. We accept no liability for any loss which may arise from use of the data.

Copyright © Carnkie Weather 2009 - 2018.